Wetterdaten: Samstag, 29.04.2023
Datum Zeit Temp. Aussen Temp. o. S. Temp +5cm Feuchte Auss Luftdruck Regen Sonnenschein Regendauer Solar Windben Empfang
29.04.2023 00:00 12,9 C 12,2 C 8,3 C 95 % 1013,2 hPa 0,0 l/m 0 min 0 min 0 W/m 16,1 km/h (3 Bft) 95,45 %
29.04.2023 00:02 12,9 C 12,2 C 8,3 C 95 % 1013,1 hPa 0,0 l/m 0 min 0 min 0 W/m 6,4 km/h (2 Bft) 13,33 %
29.04.2023 00:04 12,9 C 12,2 C 8,3 C 96 % 1013,1 hPa 0,0 l/m 0 min 0 min 0 W/m 12,9 km/h (3 Bft) 74,19 %
29.04.2023 00:07 12,8 C 12,2 C 8,3 C 96 % 1013,2 hPa 0,0 l/m 0 min 0 min 0 W/m 16,1 km/h (3 Bft) 74,19 %
29.04.2023 00:08 12,8 C 12,2 C 8,3 C 96 % 1013,2 hPa 0,0 l/m 0 min 0 min 0 W/m 16,1 km/h (3 Bft) 91,75 %
29.04.2023 00:10 12,8 C 12,2 C 8,3 C 96 % 1013,2 hPa 0,0 l/m 0 min 0 min 0 W/m 6,4 km/h (2 Bft) 95,74 %
29.04.2023 00:12 12,8 C 12,2 C 8,9 C 96 % 1013,1 hPa 0,0 l/m 0 min 0 min 0 W/m 9,7 km/h (2 Bft) 97,87 %
29.04.2023 00:14 12,8 C 12,2 C 8,9 C 96 % 1013,1 hPa 0,0 l/m 0 min 0 min 0 W/m 16,1 km/h (3 Bft) 100,00 %
29.04.2023 00:16 12,8 C 12,2 C 8,9 C 96 % 1013,2 hPa 0,0 l/m 0 min 0 min 0 W/m 12,9 km/h (3 Bft) 97,87 %
29.04.2023 00:18 12,8 C 12,2 C 8,9 C 95 % 1013,2 hPa 0,0 l/m 0 min 0 min 0 W/m 16,1 km/h (3 Bft) 97,87 %
29.04.2023 00:20 12,7 C 12,2 C 8,9 C 95 % 1013,2 hPa 0,0 l/m 0 min 0 min 0 W/m 19,3 km/h (3 Bft) 97,83 %
29.04.2023 00:22 12,7 C 12,2 C 8,9 C 95 % 1013,2 hPa 0,0 l/m 0 min 0 min 0 W/m 12,9 km/h (3 Bft) 97,87 %
29.04.2023 00:24 12,7 C 12,2 C 8,9 C 95 % 1013,2 hPa 0,0 l/m 0 min 0 min 0 W/m 16,1 km/h (3 Bft) 100,00 %
29.04.2023 00:26 12,7 C 12,2 C 8,9 C 95 % 1013,2 hPa 0,0 l/m 0 min 0 min 0 W/m 16,1 km/h (3 Bft) 100,00 %
29.04.2023 00:28 12,6 C 12,2 C 8,9 C 95 % 1013,3 hPa 0,0 l/m 0 min 0 min 0 W/m 16,1 km/h (3 Bft) 100,00 %
29.04.2023 00:30 12,6 C 11,7 C 8,9 C 95 % 1013,3 hPa 0,0 l/m 0 min 0 min 0 W/m 12,9 km/h (3 Bft) 100,00 %
29.04.2023 00:32 12,6 C 11,7 C 8,9 C 95 % 1013,3 hPa 0,0 l/m 0 min 0 min 0 W/m 12,9 km/h (3 Bft) 100,00 %
29.04.2023 00:34 12,6 C 11,7 C 8,9 C 95 % 1013,3 hPa 0,0 l/m 0 min 0 min 0 W/m 16,1 km/h (3 Bft) 100,00 %
29.04.2023 00:36 12,6 C 11,7 C 8,9 C 95 % 1013,3 hPa 0,0 l/m 0 min 0 min 0 W/m 19,3 km/h (3 Bft) 100,00 %
29.04.2023 00:38 12,5 C 11,7 C 8,9 C 95 % 1013,4 hPa 0,0 l/m 0 min 0 min 0 W/m 16,1 km/h (3 Bft) 100,00 %
29.04.2023 00:40 12,4 C 11,7 C 8,9 C 95 % 1013,3 hPa 0,0 l/m 0 min 0 min 0 W/m 12,9 km/h (3 Bft) 100,00 %
29.04.2023 00:42 12,4 C 11,7 C 8,9 C 95 % 1013,4 hPa 0,0 l/m 0 min 0 min 0 W/m 16,1 km/h (3 Bft) 100,00 %
29.04.2023 00:44 12,4 C 11,7 C 8,3 C 95 % 1013,4 hPa 0,0 l/m 0 min 0 min 0 W/m 16,1 km/h (3 Bft) 100,00 %
29.04.2023 00:46 12,4 C 11,7 C 8,3 C 95 % 1013,4 hPa 0,0 l/m 0 min 0 min 0 W/m 16,1 km/h (3 Bft) 97,87 %
29.04.2023 00:48 12,4 C 11,7 C 8,3 C 95 % 1013,4 hPa 0,0 l/m 0 min 0 min 0 W/m 12,9 km/h (3 Bft) 100,00 %
29.04.2023 00:50 12,3 C 11,7 C 8,3 C 95 % 1013,4 hPa 0,0 l/m 0 min 0 min 0 W/m 12,9 km/h (3 Bft) 97,87 %
29.04.2023 00:52 12,3 C 11,7 C 8,3 C 94 % 1013,4 hPa 0,0 l/m 0 min 0 min 0 W/m 12,9 km/h (3 Bft) 97,83 %
29.04.2023 00:54 12,3 C 11,7 C 8,3 C 94 % 1013,4 hPa 0,0 l/m 0 min 0 min 0 W/m 16,1 km/h (3 Bft) 97,87 %
29.04.2023 00:56 12,2 C 11,7 C 8,3 C 94 % 1013,5 hPa 0,0 l/m 0 min 0 min 0 W/m 12,9 km/h (3 Bft) 95,74 %
29.04.2023 00:58 12,2 C 11,7 C 8,3 C 94 % 1013,5 hPa 0,0 l/m 0 min 0 min 0 W/m 16,1 km/h (3 Bft) 95,74 %
29.04.2023 01:00 12,2 C 11,7 C 8,3 C 94 % 1013,5 hPa 0,0 l/m 0 min 0 min 0 W/m 9,7 km/h (2 Bft) 97,87 %
29.04.2023 01:02 12,2 C 11,7 C 8,3 C 93 % 1013,5 hPa 0,0 l/m 0 min 0 min 0 W/m 16,1 km/h (3 Bft) 96,23 %
29.04.2023 01:04 12,2 C 11,7 C 8,3 C 93 % 1013,5 hPa 0,0 l/m 0 min 0 min 0 W/m 12,9 km/h (3 Bft) 92,86 %
29.04.2023 01:06 12,2 C 11,7 C 8,3 C 93 % 1013,5 hPa 0,0 l/m 0 min 0 min 0 W/m 16,1 km/h (3 Bft) 96,55 %
29.04.2023 01:08 12,2 C 11,7 C 8,3 C 93 % 1013,5 hPa 0,0 l/m 0 min 0 min 0 W/m 6,4 km/h (2 Bft) 94,29 %
29.04.2023 01:10 12,2 C 11,7 C 8,3 C 93 % 1013,4 hPa 0,0 l/m 0 min 0 min 0 W/m 9,7 km/h (2 Bft) 95,74 %
29.04.2023 01:12 12,2 C 11,7 C 8,3 C 93 % 1013,5 hPa 0,0 l/m 0 min 0 min 0 W/m 6,4 km/h (2 Bft) 51,16 %
29.04.2023 01:14 12,2 C 11,7 C 8,3 C 93 % 1013,5 hPa 0,0 l/m 0 min 0 min 0 W/m 6,4 km/h (2 Bft) 94,55 %
29.04.2023 01:16 12,1 C 11,7 C 8,3 C 93 % 1013,5 hPa 0,0 l/m 0 min 0 min 0 W/m 12,9 km/h (3 Bft) 96,00 %
29.04.2023 01:18 12,1 C 11,7 C 8,3 C 92 % 1013,5 hPa 0,0 l/m 0 min 0 min 0 W/m 6,4 km/h (2 Bft) 95,74 %
29.04.2023 01:20 12,1 C 11,7 C 8,3 C 92 % 1013,5 hPa 0,0 l/m 0 min 0 min 0 W/m 12,9 km/h (3 Bft) 91,67 %
29.04.2023 01:22 12,1 C 11,7 C 8,3 C 92 % 1013,5 hPa 0,0 l/m 0 min 0 min 0 W/m 9,7 km/h (2 Bft) 95,74 %
29.04.2023 01:24 12,1 C 11,7 C 8,3 C 92 % 1013,6 hPa 0,0 l/m 0 min 0 min 0 W/m 9,7 km/h (2 Bft) 95,74 %
29.04.2023 01:26 12,1 C 11,7 C 8,3 C 92 % 1013,5 hPa 0,0 l/m 0 min 0 min 0 W/m 12,9 km/h (3 Bft) 95,74 %
29.04.2023 01:28 12,1 C 11,7 C 8,3 C 92 % 1013,6 hPa 0,0 l/m 0 min 0 min 0 W/m 16,1 km/h (3 Bft) 95,74 %
29.04.2023 01:30 12,0 C 11,7 C 8,3 C 91 % 1013,6 hPa 0,0 l/m 0 min 0 min 0 W/m 6,4 km/h (2 Bft) 93,22 %
29.04.2023 01:32 12,0 C 11,1 C 8,3 C 91 % 1013,7 hPa 0,0 l/m 0 min 0 min 0 W/m 12,9 km/h (3 Bft) 92,31 %
29.04.2023 01:34 12,0 C 11,1 C 8,3 C 91 % 1013,6 hPa 0,0 l/m 0 min 0 min 0 W/m 16,1 km/h (3 Bft) 93,62 %
29.04.2023 01:36 11,9 C 11,1 C 7,8 C 91 % 1013,6 hPa 0,0 l/m 0 min 0 min 0 W/m 16,1 km/h (3 Bft) 95,74 %
29.04.2023 01:38 11,9 C 11,1 C 7,8 C 91 % 1013,7 hPa 0,0 l/m 0 min 0 min 0 W/m 16,1 km/h (3 Bft) 97,83 %
29.04.2023 01:40 11,9 C 11,1 C 7,8 C 91 % 1013,7 hPa 0,0 l/m 0 min 0 min 0 W/m 12,9 km/h (3 Bft) 95,74 %
29.04.2023 01:42 11,9 C 11,1 C 7,8 C 91 % 1013,7 hPa 0,0 l/m 0 min 0 min 0 W/m 16,1 km/h (3 Bft) 97,87 %
29.04.2023 01:44 11,9 C 11,1 C 7,8 C 91 % 1013,6 hPa 0,0 l/m 0 min 0 min 0 W/m 12,9 km/h (3 Bft) 95,74 %
29.04.2023 01:46 11,9 C 11,1 C 7,8 C 91 % 1013,7 hPa 0,0 l/m 0 min 0 min 0 W/m 16,1 km/h (3 Bft) 95,74 %
29.04.2023 01:48 11,8 C 11,1 C 7,8 C 91 % 1013,7 hPa 0,0 l/m 0 min 0 min 0 W/m 12,9 km/h (3 Bft) 93,62 %
29.04.2023 01:50 11,8 C 11,1 C 7,8 C 91 % 1013,8 hPa 0,0 l/m 0 min 0 min 0 W/m 12,9 km/h (3 Bft) 97,87 %
29.04.2023 01:52 11,8 C 11,1 C 7,8 C 91 % 1013,8 hPa 0,0 l/m 0 min 0 min 0 W/m 16,1 km/h (3 Bft) 97,83 %
29.04.2023 01:54 11,8 C 11,1 C 7,8 C 91 % 1013,7 hPa 0,0 l/m 0 min 0 min 0 W/m 16,1 km/h (3 Bft) 97,92 %
29.04.2023 01:56 11,7 C 11,1 C 7,8 C 91 % 1013,8 hPa 0,0 l/m 0 min 0 min 0 W/m 16,1 km/h (3 Bft) 95,74 %
29.04.2023 01:58 11,7 C 10,6 C 7,2 C 91 % 1013,9 hPa 0,0 l/m 0 min 0 min 0 W/m 9,7 km/h (2 Bft) 95,74 %
29.04.2023 02:00 11,7 C 10,6 C 7,2 C 91 % 1013,9 hPa 0,0 l/m 0 min 0 min 0 W/m 12,9 km/h (3 Bft) 97,83 %
29.04.2023 02:02 11,6 C 10,6 C 7,2 C 91 % 1013,9 hPa 0,0 l/m 0 min 0 min 0 W/m 16,1 km/h (3 Bft) 97,87 %
29.04.2023 02:04 11,6 C 10,6 C 7,2 C 91 % 1013,9 hPa 0,0 l/m 0 min 0 min 0 W/m 19,3 km/h (3 Bft) 97,92 %
29.04.2023 02:06 11,6 C 10,6 C 7,2 C 91 % 1013,9 hPa 0,0 l/m 0 min 2 min 0 W/m 22,5 km/h (4 Bft) 97,87 %
29.04.2023 02:08 11,5 C 10,6 C 7,2 C 92 % 1013,9 hPa 0,0 l/m 0 min 0 min 0 W/m 19,3 km/h (3 Bft) 97,87 %
29.04.2023 02:10 11,5 C 10,6 C 7,2 C 92 % 1013,9 hPa 0,0 l/m 0 min 0 min 0 W/m 22,5 km/h (4 Bft) 97,87 %
29.04.2023 02:14 11,4 C 10,6 C 7,2 C 92 % 1014,0 hPa 0,0 l/m 0 min 0 min 0 W/m 16,1 km/h (3 Bft) 100,00 %
29.04.2023 02:16 11,4 C 10,6 C 7,2 C 92 % 1014,0 hPa 0,0 l/m 0 min 0 min 0 W/m 19,3 km/h (3 Bft) 100,00 %
29.04.2023 02:18 11,3 C 10,6 C 7,2 C 93 % 1014,0 hPa 0,0 l/m 0 min 0 min 0 W/m 16,1 km/h (3 Bft) 100,00 %
29.04.2023 02:20 11,3 C 10,6 C 7,2 C 93 % 1014,0 hPa 0,0 l/m 0 min 0 min 0 W/m 19,3 km/h (3 Bft) 100,00 %
29.04.2023 02:22 11,3 C 10,6 C 7,2 C 93 % 1014,0 hPa 0,0 l/m 0 min 0 min 0 W/m 12,9 km/h (3 Bft) 100,00 %
29.04.2023 02:24 11,3 C 10,6 C 7,2 C 93 % 1014,0 hPa 0,0 l/m 0 min 0 min 0 W/m 19,3 km/h (3 Bft) 100,00 %
29.04.2023 02:26 11,2 C 10,6 C 7,2 C 93 % 1014,0 hPa 0,0 l/m 0 min 0 min 0 W/m 12,9 km/h (3 Bft) 100,00 %
29.04.2023 02:28 11,2 C 10,6 C 7,2 C 93 % 1014,1 hPa 0,0 l/m 0 min 0 min 0 W/m 19,3 km/h (3 Bft) 97,87 %
29.04.2023 02:30 11,2 C 10,6 C 7,2 C 93 % 1014,1 hPa 0,0 l/m 0 min 0 min 0 W/m 19,3 km/h (3 Bft) 100,00 %
29.04.2023 02:32 11,2 C 10,6 C 7,2 C 93 % 1014,1 hPa 0,0 l/m 0 min 0 min 0 W/m 19,3 km/h (3 Bft) 100,00 %
29.04.2023 02:34 11,2 C 10,6 C 7,2 C 93 % 1014,1 hPa 0,0 l/m 0 min 0 min 0 W/m 16,1 km/h (3 Bft) 97,87 %
29.04.2023 02:36 11,1 C 10,6 C 7,2 C 93 % 1014,2 hPa 0,0 l/m 0 min 0 min 0 W/m 16,1 km/h (3 Bft) 100,00 %
29.04.2023 02:38 11,1 C 10,6 C 7,2 C 93 % 1014,2 hPa 0,0 l/m 0 min 0 min 0 W/m 12,9 km/h (3 Bft) 100,00 %
29.04.2023 02:40 11,1 C 10,6 C 7,2 C 93 % 1014,2 hPa 0,0 l/m 0 min 0 min 0 W/m 16,1 km/h (3 Bft) 100,00 %
29.04.2023 02:42 11,1 C 10,6 C 7,2 C 93 % 1014,3 hPa 0,0 l/m 0 min 0 min 0 W/m 16,1 km/h (3 Bft) 95,74 %
29.04.2023 02:44 11,1 C 10,6 C 7,2 C 93 % 1014,3 hPa 0,0 l/m 0 min 0 min 0 W/m 16,1 km/h (3 Bft) 100,00 %
29.04.2023 02:46 11,1 C 10,0 C 7,2 C 93 % 1014,3 hPa 0,0 l/m 0 min 0 min 0 W/m 12,9 km/h (3 Bft) 100,00 %
29.04.2023 02:48 11,1 C 10,0 C 7,2 C 93 % 1014,3 hPa 0,0 l/m 0 min 0 min 0 W/m 6,4 km/h (2 Bft) 100,00 %
29.04.2023 02:50 11,1 C 10,0 C 7,2 C 94 % 1014,3 hPa 0,0 l/m 0 min 0 min 0 W/m 25,7 km/h (4 Bft) 100,00 %
29.04.2023 02:52 11,1 C 10,6 C 7,2 C 94 % 1014,3 hPa 0,0 l/m 0 min 0 min 0 W/m 19,3 km/h (3 Bft) 100,00 %
29.04.2023 02:54 11,0 C 10,0 C 7,2 C 94 % 1014,3 hPa 0,0 l/m 0 min 0 min 0 W/m 12,9 km/h (3 Bft) 100,00 %
29.04.2023 02:56 11,0 C 10,0 C 7,2 C 94 % 1014,3 hPa 0,0 l/m 0 min 0 min 0 W/m 16,1 km/h (3 Bft) 100,00 %
29.04.2023 02:58 10,9 C 10,0 C 7,2 C 94 % 1014,3 hPa 0,0 l/m 0 min 0 min 0 W/m 12,9 km/h (3 Bft) 100,00 %
29.04.2023 03:00 10,9 C 10,0 C 7,2 C 94 % 1014,4 hPa 0,0 l/m 0 min 0 min 0 W/m 12,9 km/h (3 Bft) 97,87 %
29.04.2023 03:02 10,9 C 10,0 C 7,2 C 94 % 1014,4 hPa 0,0 l/m 0 min 0 min 0 W/m 9,7 km/h (2 Bft) 100,00 %
29.04.2023 03:04 10,9 C 10,0 C 7,2 C 94 % 1014,5 hPa 0,0 l/m 0 min 0 min 0 W/m 12,9 km/h (3 Bft) 93,48 %
29.04.2023 03:06 10,9 C 10,0 C 7,2 C 94 % 1014,4 hPa 0,0 l/m 0 min 0 min 0 W/m 12,9 km/h (3 Bft) 100,00 %
29.04.2023 03:08 10,9 C 10,0 C 7,2 C 94 % 1014,4 hPa 0,0 l/m 0 min 0 min 0 W/m 9,7 km/h (2 Bft) 100,00 %
29.04.2023 03:10 10,9 C 10,0 C 7,2 C 94 % 1014,5 hPa 0,0 l/m 0 min 0 min 0 W/m 12,9 km/h (3 Bft) 100,00 %
29.04.2023 03:12 10,8 C 10,0 C 7,2 C 94 % 1014,4 hPa 0,0 l/m 0 min 0 min 0 W/m 16,1 km/h (3 Bft) 100,00 %
29.04.2023 03:14 10,8 C 10,0 C 7,2 C 94 % 1014,5 hPa 0,0 l/m 0 min 0 min 0 W/m 19,3 km/h (3 Bft) 100,00 %
29.04.2023 03:16 10,8 C 10,0 C 7,2 C 94 % 1014,5 hPa 0,0 l/m 0 min 0 min 0 W/m 9,7 km/h (2 Bft) 100,00 %
29.04.2023 03:18 10,8 C 10,0 C 7,2 C 94 % 1014,5 hPa 0,0 l/m 0 min 0 min 0 W/m 9,7 km/h (2 Bft) 100,00 %
29.04.2023 03:20 10,8 C 10,0 C 7,2 C 94 % 1014,5 hPa 0,0 l/m 0 min 0 min 0 W/m 9,7 km/h (2 Bft) 100,00 %
29.04.2023 03:22 10,8 C 10,0 C 7,2 C 94 % 1014,5 hPa 0,0 l/m 0 min 0 min 0 W/m 9,7 km/h (2 Bft) 100,00 %
29.04.2023 03:24 10,8 C 10,0 C 7,2 C 94 % 1014,5 hPa 0,0 l/m 0 min 0 min 0 W/m 16,1 km/h (3 Bft) 95,74 %
29.04.2023 03:26 10,8 C 10,0 C 7,2 C 94 % 1014,5 hPa 0,0 l/m 0 min 0 min 0 W/m 16,1 km/h (3 Bft) 97,87 %
29.04.2023 03:28 10,8 C 10,0 C 6,7 C 94 % 1014,6 hPa 0,0 l/m 0 min 0 min 0 W/m 9,7 km/h (2 Bft) 100,00 %
29.04.2023 03:30 10,7 C 10,0 C 6,7 C 94 % 1014,6 hPa 0,0 l/m 0 min 0 min 0 W/m 22,5 km/h (4 Bft) 100,00 %
29.04.2023 03:32 10,7 C 10,0 C 6,7 C 94 % 1014,6 hPa 0,0 l/m 0 min 0 min 0 W/m 19,3 km/h (3 Bft) 97,83 %
29.04.2023 03:34 10,7 C 10,0 C 6,7 C 94 % 1014,7 hPa 0,0 l/m 0 min 0 min 0 W/m 19,3 km/h (3 Bft) 97,87 %
29.04.2023 03:36 10,6 C 10,0 C 6,7 C 94 % 1014,7 hPa 0,0 l/m 0 min 0 min 0 W/m 29,0 km/h (5 Bft) 93,62 %
29.04.2023 03:38 10,6 C 10,0 C 6,7 C 94 % 1014,7 hPa 0,0 l/m 0 min 0 min 0 W/m 29,0 km/h (5 Bft) 97,87 %
29.04.2023 03:40 10,5 C 10,0 C 6,7 C 94 % 1014,7 hPa 0,0 l/m 0 min 0 min 0 W/m 16,1 km/h (3 Bft) 97,87 %
29.04.2023 03:42 10,4 C 10,0 C 6,7 C 94 % 1014,7 hPa 0,0 l/m 0 min 0 min 0 W/m 16,1 km/h (3 Bft) 95,74 %
29.04.2023 03:44 10,4 C 10,0 C 6,7 C 94 % 1014,8 hPa 0,0 l/m 0 min 0 min 0 W/m 19,3 km/h (3 Bft) 97,87 %
29.04.2023 03:46 10,4 C 10,0 C 6,7 C 94 % 1014,7 hPa 0,0 l/m 0 min 0 min 0 W/m 16,1 km/h (3 Bft) 97,83 %
29.04.2023 03:48 10,4 C 10,0 C 6,7 C 94 % 1014,8 hPa 0,0 l/m 0 min 0 min 0 W/m 12,9 km/h (3 Bft) 95,74 %
29.04.2023 03:50 10,3 C 10,0 C 6,7 C 94 % 1014,8 hPa 0,0 l/m 0 min 0 min 0 W/m 35,4 km/h (5 Bft) 95,74 %
29.04.2023 03:52 10,3 C 10,0 C 6,7 C 94 % 1014,8 hPa 0,0 l/m 0 min 0 min 0 W/m 16,1 km/h (3 Bft) 91,49 %
29.04.2023 03:54 10,3 C 9,4 C 6,7 C 94 % 1014,9 hPa 0,0 l/m 0 min 0 min 0 W/m 16,1 km/h (3 Bft) 93,62 %
29.04.2023 03:56 10,3 C 9,4 C 6,7 C 94 % 1014,9 hPa 0,0 l/m 0 min 0 min 0 W/m 16,1 km/h (3 Bft) 93,75 %
29.04.2023 03:58 10,3 C 9,4 C 6,7 C 94 % 1014,9 hPa 0,0 l/m 0 min 0 min 0 W/m 16,1 km/h (3 Bft) 93,62 %
29.04.2023 04:00 10,3 C 9,4 C 6,7 C 94 % 1014,9 hPa 0,0 l/m 0 min 0 min 0 W/m 16,1 km/h (3 Bft) 93,48 %
29.04.2023 04:02 10,3 C 9,4 C 6,7 C 94 % 1014,8 hPa 0,0 l/m 0 min 0 min 0 W/m 22,5 km/h (4 Bft) 93,62 %
29.04.2023 04:04 10,3 C 9,4 C 6,7 C 94 % 1014,9 hPa 0,0 l/m 0 min 0 min 0 W/m 29,0 km/h (5 Bft) 93,62 %
29.04.2023 04:08 10,2 C 9,4 C 6,7 C 94 % 1015,0 hPa 0,0 l/m 0 min 0 min 0 W/m 19,3 km/h (3 Bft) 93,26 %
29.04.2023 04:10 10,1 C 9,4 C 6,7 C 94 % 1015,0 hPa 0,0 l/m 0 min 0 min 0 W/m 16,1 km/h (3 Bft) 93,62 %
29.04.2023 04:12 10,1 C 9,4 C 6,7 C 94 % 1015,0 hPa 0,0 l/m 0 min 0 min 0 W/m 12,9 km/h (3 Bft) 95,65 %
29.04.2023 04:14 10,1 C 9,4 C 6,7 C 94 % 1015,0 hPa 0,0 l/m 0 min 0 min 0 W/m 22,5 km/h (4 Bft) 93,62 %
29.04.2023 04:16 10,1 C 9,4 C 6,7 C 94 % 1015,1 hPa 0,0 l/m 0 min 0 min 0 W/m 9,7 km/h (2 Bft) 95,24 %
29.04.2023 04:18 10,1 C 9,4 C 6,7 C 94 % 1015,0 hPa 0,0 l/m 0 min 0 min 0 W/m 12,9 km/h (3 Bft) 93,62 %
29.04.2023 04:20 10,1 C 9,4 C 6,7 C 94 % 1015,0 hPa 0,0 l/m 0 min 0 min 0 W/m 12,9 km/h (3 Bft) 95,74 %
29.04.2023 04:22 10,0 C 9,4 C 6,7 C 94 % 1015,0 hPa 0,0 l/m 0 min 0 min 0 W/m 9,7 km/h (2 Bft) 97,87 %
29.04.2023 04:24 10,0 C 9,4 C 6,7 C 94 % 1015,1 hPa 0,0 l/m 0 min 0 min 0 W/m 19,3 km/h (3 Bft) 93,62 %
29.04.2023 04:26 10,0 C 9,4 C 6,7 C 94 % 1015,1 hPa 0,0 l/m 0 min 0 min 0 W/m 12,9 km/h (3 Bft) 94,00 %
29.04.2023 04:28 10,0 C 9,4 C 6,1 C 94 % 1015,1 hPa 0,0 l/m 0 min 0 min 0 W/m 9,7 km/h (2 Bft) 93,62 %
29.04.2023 04:30 9,9 C 9,4 C 6,7 C 94 % 1015,2 hPa 0,0 l/m 0 min 0 min 0 W/m 16,1 km/h (3 Bft) 95,83 %
29.04.2023 04:32 9,9 C 9,4 C 6,7 C 94 % 1015,1 hPa 0,0 l/m 0 min 0 min 0 W/m 16,1 km/h (3 Bft) 95,74 %
29.04.2023 04:34 9,9 C 9,4 C 6,1 C 94 % 1015,1 hPa 0,0 l/m 0 min 0 min 0 W/m 16,1 km/h (3 Bft) 91,49 %
29.04.2023 04:36 9,9 C 9,4 C 6,1 C 94 % 1015,2 hPa 0,0 l/m 0 min 0 min 0 W/m 16,1 km/h (3 Bft) 95,74 %
29.04.2023 04:38 9,9 C 9,4 C 6,1 C 94 % 1015,2 hPa 0,0 l/m 0 min 0 min 0 W/m 16,1 km/h (3 Bft) 97,87 %
29.04.2023 04:40 9,9 C 9,4 C 6,1 C 94 % 1015,2 hPa 0,0 l/m 0 min 0 min 0 W/m 16,1 km/h (3 Bft) 95,65 %
29.04.2023 04:42 9,9 C 9,4 C 6,1 C 94 % 1015,2 hPa 0,0 l/m 0 min 0 min 0 W/m 9,7 km/h (2 Bft) 95,74 %
29.04.2023 04:44 9,9 C 9,4 C 6,1 C 94 % 1015,3 hPa 0,0 l/m 0 min 0 min 0 W/m 25,7 km/h (4 Bft) 100,00 %
29.04.2023 04:46 9,9 C 9,4 C 6,1 C 94 % 1015,3 hPa 0,0 l/m 0 min 0 min 0 W/m 9,7 km/h (2 Bft) 100,00 %
29.04.2023 04:48 9,9 C 9,4 C 6,1 C 94 % 1015,3 hPa 0,0 l/m 0 min 0 min 0 W/m 12,9 km/h (3 Bft) 97,87 %
29.04.2023 04:50 9,9 C 9,4 C 6,1 C 94 % 1015,3 hPa 0,0 l/m 0 min 0 min 0 W/m 12,9 km/h (3 Bft) 100,00 %
29.04.2023 04:52 9,9 C 9,4 C 6,1 C 94 % 1015,3 hPa 0,0 l/m 0 min 0 min 0 W/m 16,1 km/h (3 Bft) 97,87 %
29.04.2023 04:54 9,9 C 9,4 C 6,1 C 94 % 1015,4 hPa 0,0 l/m 0 min 0 min 0 W/m 6,4 km/h (2 Bft) 100,00 %
29.04.2023 04:56 9,9 C 9,4 C 6,1 C 94 % 1015,4 hPa 0,0 l/m 0 min 0 min 0 W/m 19,3 km/h (3 Bft) 97,83 %
29.04.2023 04:58 9,9 C 9,4 C 6,1 C 94 % 1015,4 hPa 0,0 l/m 0 min 0 min 0 W/m 12,9 km/h (3 Bft) 100,00 %
29.04.2023 05:00 9,9 C 9,4 C 6,1 C 94 % 1015,4 hPa 0,0 l/m 0 min 0 min 0 W/m 12,9 km/h (3 Bft) 100,00 %
29.04.2023 05:02 9,9 C 9,4 C 6,1 C 94 % 1015,5 hPa 0,0 l/m 0 min 0 min 0 W/m 12,9 km/h (3 Bft) 97,87 %
29.04.2023 05:04 9,8 C 8,9 C 6,1 C 94 % 1015,5 hPa 0,0 l/m 0 min 0 min 0 W/m 12,9 km/h (3 Bft) 97,62 %
29.04.2023 05:06 9,8 C 8,9 C 6,1 C 94 % 1015,5 hPa 0,0 l/m 0 min 0 min 0 W/m 12,9 km/h (3 Bft) 100,00 %
29.04.2023 05:08 9,8 C 8,9 C 6,1 C 94 % 1015,5 hPa 0,0 l/m 0 min 0 min 0 W/m 19,3 km/h (3 Bft) 96,88 %
29.04.2023 05:10 9,8 C 8,9 C 6,1 C 94 % 1015,6 hPa 0,0 l/m 0 min 0 min 0 W/m 19,3 km/h (3 Bft) 100,00 %
29.04.2023 05:12 9,8 C 8,9 C 6,1 C 94 % 1015,6 hPa 0,0 l/m 0 min 0 min 0 W/m 12,9 km/h (3 Bft) 100,00 %
29.04.2023 05:14 9,8 C 8,9 C 5,6 C 94 % 1015,6 hPa 0,0 l/m 0 min 0 min 0 W/m 16,1 km/h (3 Bft) 100,00 %
29.04.2023 05:16 9,8 C 8,9 C 5,6 C 94 % 1015,6 hPa 0,0 l/m 0 min 0 min 0 W/m 12,9 km/h (3 Bft) 100,00 %
29.04.2023 05:18 9,7 C 8,9 C 5,6 C 94 % 1015,6 hPa 0,0 l/m 0 min 0 min 0 W/m 12,9 km/h (3 Bft) 100,00 %
29.04.2023 05:20 9,7 C 8,9 C 5,6 C 94 % 1015,6 hPa 0,0 l/m 0 min 0 min 0 W/m 12,9 km/h (3 Bft) 97,87 %
29.04.2023 05:22 9,7 C 8,9 C 5,6 C 95 % 1015,6 hPa 0,0 l/m 0 min 0 min 0 W/m 16,1 km/h (3 Bft) 97,87 %
29.04.2023 05:24 9,7 C 8,9 C 5,6 C 95 % 1015,7 hPa 0,0 l/m 0 min 0 min 0 W/m 12,9 km/h (3 Bft) 97,83 %
29.04.2023 05:26 9,7 C 8,9 C 5,6 C 95 % 1015,6 hPa 0,0 l/m 0 min 0 min 0 W/m 12,9 km/h (3 Bft) 97,87 %
29.04.2023 05:28 9,7 C 8,9 C 5,6 C 95 % 1015,7 hPa 0,0 l/m 0 min 0 min 0 W/m 12,9 km/h (3 Bft) 97,87 %
29.04.2023 05:30 9,7 C 8,9 C 5,6 C 95 % 1015,7 hPa 0,0 l/m 0 min 0 min 0 W/m 12,9 km/h (3 Bft) 97,87 %
29.04.2023 05:32 9,7 C 8,9 C 5,6 C 95 % 1015,7 hPa 0,0 l/m 0 min 0 min 0 W/m 12,9 km/h (3 Bft) 97,87 %
29.04.2023 05:34 9,7 C 8,9 C 5,6 C 95 % 1015,7 hPa 0,0 l/m 0 min 0 min 0 W/m 9,7 km/h (2 Bft) 97,87 %
29.04.2023 05:36 9,6 C 8,9 C 5,6 C 95 % 1015,7 hPa 0,0 l/m 0 min 0 min 0 W/m 12,9 km/h (3 Bft) 97,87 %
29.04.2023 05:38 9,6 C 8,9 C 5,6 C 95 % 1015,8 hPa 0,0 l/m 0 min 0 min 0 W/m 9,7 km/h (2 Bft) 93,62 %
29.04.2023 05:40 9,6 C 8,9 C 5,6 C 95 % 1015,7 hPa 0,0 l/m 0 min 0 min 0 W/m 12,9 km/h (3 Bft) 95,65 %
29.04.2023 05:42 9,6 C 8,3 C 5,6 C 95 % 1015,7 hPa 0,0 l/m 0 min 2 min 0 W/m 16,1 km/h (3 Bft) 95,74 %
29.04.2023 05:44 9,6 C 8,3 C 5,6 C 95 % 1015,7 hPa 0,0 l/m 0 min 0 min 0 W/m 9,7 km/h (2 Bft) 97,87 %
29.04.2023 05:46 9,6 C 8,3 C 5,6 C 95 % 1015,7 hPa 0,0 l/m 0 min 2 min 0 W/m 6,4 km/h (2 Bft) 97,87 %
29.04.2023 05:48 9,6 C 8,3 C 5,6 C 95 % 1015,8 hPa 0,0 l/m 0 min 0 min 0 W/m 16,1 km/h (3 Bft) 95,74 %
29.04.2023 05:50 9,6 C 8,3 C 5,6 C 95 % 1015,8 hPa 0,0 l/m 0 min 0 min 0 W/m 6,4 km/h (2 Bft) 97,87 %
29.04.2023 05:52 9,5 C 8,3 C 5,6 C 95 % 1015,8 hPa 0,0 l/m 0 min 0 min 0 W/m 9,7 km/h (2 Bft) 95,74 %
29.04.2023 05:54 9,5 C 8,3 C 5,6 C 95 % 1015,8 hPa 0,0 l/m 0 min 2 min 0 W/m 9,7 km/h (2 Bft) 100,00 %
29.04.2023 05:56 9,5 C 8,3 C 5,6 C 96 % 1015,9 hPa 0,0 l/m 0 min 0 min 0 W/m 19,3 km/h (3 Bft) 100,00 %
29.04.2023 05:58 9,5 C 8,3 C 5,6 C 95 % 1015,8 hPa 0,0 l/m 0 min 0 min 0 W/m 9,7 km/h (2 Bft) 97,87 %
29.04.2023 06:00 9,4 C 8,3 C 5,6 C 95 % 1015,8 hPa 0,0 l/m 0 min 0 min 0 W/m 12,9 km/h (3 Bft) 100,00 %
29.04.2023 06:02 9,4 C 8,3 C 5,6 C 96 % 1015,8 hPa 0,0 l/m 0 min 0 min 0 W/m 9,7 km/h (2 Bft) 97,87 %
29.04.2023 06:04 9,4 C 8,3 C 5,6 C 96 % 1015,9 hPa 0,0 l/m 0 min 0 min 0 W/m 16,1 km/h (3 Bft) 100,00 %
29.04.2023 06:07 9,4 C 8,3 C 5,6 C 96 % 1015,9 hPa 0,0 l/m 0 min 0 min 0 W/m 6,4 km/h (2 Bft) 100,00 %
29.04.2023 06:08 9,4 C 8,3 C 5,6 C 96 % 1015,9 hPa 0,0 l/m 0 min 0 min 0 W/m 3,2 km/h (1 Bft) 100,00 %
29.04.2023 06:12 9,4 C 8,3 C 5,6 C 96 % 1015,9 hPa 0,0 l/m 0 min 0 min 0 W/m 12,9 km/h (3 Bft) 96,15 %
29.04.2023 06:14 9,4 C 8,3 C 5,6 C 96 % 1015,9 hPa 0,0 l/m 0 min 0 min 0 W/m 12,9 km/h (3 Bft) 100,00 %
29.04.2023 06:16 9,4 C 8,3 C 5,6 C 96 % 1015,9 hPa 0,0 l/m 0 min 0 min 0 W/m 12,9 km/h (3 Bft) 100,00 %
29.04.2023 06:18 9,4 C 8,3 C 5,6 C 96 % 1016,0 hPa 0,0 l/m 0 min 0 min 0 W/m 9,7 km/h (2 Bft) 95,74 %
29.04.2023 06:20 9,4 C 8,3 C 5,6 C 96 % 1016,0 hPa 0,0 l/m 0 min 0 min 0 W/m 6,4 km/h (2 Bft) 100,00 %
29.04.2023 06:22 9,4 C 8,3 C 5,6 C 96 % 1016,0 hPa 0,0 l/m 0 min 0 min 0 W/m 9,7 km/h (2 Bft) 100,00 %
29.04.2023 06:24 9,4 C 8,3 C 5,6 C 96 % 1016,0 hPa 0,0 l/m 0 min 0 min 0 W/m 9,7 km/h (2 Bft) 97,87 %
29.04.2023 06:26 9,4 C 8,3 C 5,6 C 96 % 1016,1 hPa 0,0 l/m 0 min 0 min 1 W/m 6,4 km/h (2 Bft) 97,87 %
29.04.2023 06:28 9,4 C 8,3 C 5,6 C 96 % 1016,1 hPa 0,0 l/m 0 min 0 min 4 W/m 12,9 km/h (3 Bft) 95,74 %
29.04.2023 06:30 9,4 C 8,3 C 5,6 C 96 % 1016,1 hPa 0,0 l/m 0 min 0 min 4 W/m 9,7 km/h (2 Bft) 97,87 %
29.04.2023 06:32 9,3 C 8,3 C 5,0 C 96 % 1016,1 hPa 0,0 l/m 0 min 0 min 5 W/m 9,7 km/h (2 Bft) 100,00 %
29.04.2023 06:34 9,3 C 8,3 C 5,6 C 96 % 1016,2 hPa 0,0 l/m 0 min 0 min 5 W/m 9,7 km/h (2 Bft) 95,74 %
29.04.2023 06:36 9,3 C 8,3 C 5,6 C 96 % 1016,2 hPa 0,0 l/m 0 min 0 min 6 W/m 16,1 km/h (3 Bft) 95,74 %
29.04.2023 06:38 9,3 C 8,3 C 5,6 C 96 % 1016,2 hPa 0,0 l/m 0 min 0 min 7 W/m 6,4 km/h (2 Bft) 97,87 %
29.04.2023 06:40 9,3 C 8,3 C 5,6 C 96 % 1016,2 hPa 0,0 l/m 0 min 0 min 7 W/m 6,4 km/h (2 Bft) 97,87 %
29.04.2023 06:42 9,3 C 8,3 C 5,6 C 96 % 1016,3 hPa 0,0 l/m 0 min 0 min 7 W/m 6,4 km/h (2 Bft) 95,74 %
29.04.2023 06:44 9,3 C 8,3 C 5,6 C 96 % 1016,3 hPa 0,0 l/m 0 min 0 min 7 W/m 6,4 km/h (2 Bft) 97,87 %
29.04.2023 06:46 9,3 C 8,3 C 5,6 C 96 % 1016,3 hPa 0,0 l/m 0 min 0 min 8 W/m 12,9 km/h (3 Bft) 95,65 %
29.04.2023 06:48 9,3 C 8,3 C 5,6 C 96 % 1016,3 hPa 0,0 l/m 0 min 0 min 8 W/m 12,9 km/h (3 Bft) 95,74 %
29.04.2023 06:50 9,3 C 8,3 C 5,6 C 96 % 1016,3 hPa 0,0 l/m 0 min 0 min 8 W/m 12,9 km/h (3 Bft) 95,74 %
29.04.2023 06:52 9,3 C 8,3 C 5,6 C 96 % 1016,3 hPa 0,0 l/m 0 min 0 min 9 W/m 9,7 km/h (2 Bft) 97,87 %
29.04.2023 06:54 9,3 C 8,9 C 5,6 C 96 % 1016,4 hPa 0,0 l/m 0 min 0 min 9 W/m 16,1 km/h (3 Bft) 97,87 %
29.04.2023 06:56 9,3 C 8,3 C 5,6 C 97 % 1016,4 hPa 0,0 l/m 0 min 0 min 9 W/m 16,1 km/h (3 Bft) 97,87 %
29.04.2023 06:58 9,3 C 8,3 C 5,6 C 97 % 1016,5 hPa 0,0 l/m 0 min 0 min 11 W/m 6,4 km/h (2 Bft) 95,74 %
29.04.2023 07:00 9,3 C 8,9 C 5,6 C 97 % 1016,5 hPa 0,0 l/m 0 min 0 min 12 W/m 9,7 km/h (2 Bft) 91,30 %
29.04.2023 07:02 9,3 C 8,9 C 5,6 C 97 % 1016,5 hPa 0,0 l/m 0 min 0 min 12 W/m 9,7 km/h (2 Bft) 95,74 %
29.04.2023 07:04 9,3 C 8,3 C 5,6 C 97 % 1016,5 hPa 0,0 l/m 0 min 0 min 12 W/m 9,7 km/h (2 Bft) 91,67 %
29.04.2023 07:06 9,2 C 8,3 C 5,6 C 97 % 1016,5 hPa 0,0 l/m 0 min 0 min 12 W/m 9,7 km/h (2 Bft) 95,00 %
29.04.2023 07:08 9,3 C 8,9 C 5,6 C 97 % 1016,6 hPa 0,0 l/m 0 min 0 min 12 W/m 12,9 km/h (3 Bft) 94,29 %
29.04.2023 07:10 9,3 C 8,9 C 5,6 C 97 % 1016,6 hPa 0,0 l/m 0 min 0 min 13 W/m 6,4 km/h (2 Bft) 95,74 %
29.04.2023 07:12 9,3 C 8,3 C 5,6 C 97 % 1016,7 hPa 0,0 l/m 0 min 0 min 15 W/m 6,4 km/h (2 Bft) 91,49 %
29.04.2023 07:14 9,3 C 8,3 C 5,6 C 97 % 1016,6 hPa 0,0 l/m 0 min 0 min 18 W/m 6,4 km/h (2 Bft) 93,48 %
29.04.2023 07:16 9,3 C 8,3 C 5,6 C 97 % 1016,6 hPa 0,0 l/m 0 min 0 min 20 W/m 9,7 km/h (2 Bft) 91,49 %
29.04.2023 07:18 9,3 C 8,9 C 5,6 C 97 % 1016,7 hPa 0,0 l/m 0 min 0 min 25 W/m 6,4 km/h (2 Bft) 93,62 %
29.04.2023 07:20 9,3 C 8,9 C 5,6 C 97 % 1016,7 hPa 0,0 l/m 0 min 0 min 26 W/m 6,4 km/h (2 Bft) 95,74 %
29.04.2023 07:22 9,3 C 8,9 C 5,6 C 97 % 1016,7 hPa 0,0 l/m 0 min 0 min 25 W/m 6,4 km/h (2 Bft) 97,87 %
29.04.2023 07:24 9,3 C 8,9 C 5,6 C 97 % 1016,7 hPa 0,0 l/m 0 min 0 min 23 W/m 3,2 km/h (1 Bft) 95,74 %
29.04.2023 07:26 9,3 C 8,9 C 5,6 C 97 % 1016,7 hPa 0,0 l/m 0 min 0 min 26 W/m 6,4 km/h (2 Bft) 95,74 %
29.04.2023 07:28 9,3 C 8,9 C 5,6 C 97 % 1016,8 hPa 0,0 l/m 0 min 0 min 34 W/m 9,7 km/h (2 Bft) 95,65 %
29.04.2023 07:30 9,3 C 8,9 C 5,6 C 97 % 1016,8 hPa 0,0 l/m 0 min 0 min 37 W/m 6,4 km/h (2 Bft) 95,74 %
29.04.2023 07:32 9,3 C 8,9 C 5,6 C 97 % 1016,8 hPa 0,0 l/m 0 min 0 min 38 W/m 6,4 km/h (2 Bft) 95,74 %
29.04.2023 07:34 9,3 C 8,9 C 5,6 C 97 % 1016,8 hPa 0,0 l/m 0 min 0 min 40 W/m 9,7 km/h (2 Bft) 87,23 %
29.04.2023 07:36 9,3 C 8,9 C 5,6 C 97 % 1016,8 hPa 0,0 l/m 0 min 0 min 40 W/m 9,7 km/h (2 Bft) 95,74 %
29.04.2023 07:38 9,4 C 8,9 C 5,6 C 97 % 1016,8 hPa 0,0 l/m 0 min 0 min 38 W/m 6,4 km/h (2 Bft) 95,74 %
29.04.2023 07:40 9,4 C 8,9 C 5,6 C 97 % 1016,9 hPa 0,0 l/m 0 min 0 min 43 W/m 6,4 km/h (2 Bft) 95,74 %
29.04.2023 07:42 9,4 C 8,9 C 5,6 C 97 % 1016,9 hPa 0,0 l/m 0 min 0 min 45 W/m 6,4 km/h (2 Bft) 93,48 %
29.04.2023 07:44 9,4 C 8,9 C 5,6 C 97 % 1016,9 hPa 0,0 l/m 0 min 0 min 46 W/m 19,3 km/h (3 Bft) 97,87 %
29.04.2023 07:46 9,4 C 8,9 C 5,6 C 97 % 1016,9 hPa 0,0 l/m 0 min 0 min 47 W/m 9,7 km/h (2 Bft) 97,87 %
29.04.2023 07:48 9,4 C 8,9 C 5,6 C 97 % 1016,9 hPa 0,0 l/m 0 min 0 min 40 W/m 12,9 km/h (3 Bft) 97,87 %
29.04.2023 07:50 9,4 C 8,9 C 5,6 C 97 % 1017,0 hPa 0,0 l/m 0 min 0 min 46 W/m 12,9 km/h (3 Bft) 95,74 %
29.04.2023 07:52 9,4 C 8,9 C 5,6 C 97 % 1017,0 hPa 0,0 l/m 0 min 0 min 47 W/m 12,9 km/h (3 Bft) 97,87 %
29.04.2023 07:54 9,4 C 9,4 C 5,6 C 97 % 1017,0 hPa 0,0 l/m 0 min 0 min 40 W/m 9,7 km/h (2 Bft) 100,00 %
29.04.2023 07:56 9,4 C 9,4 C 5,6 C 97 % 1017,0 hPa 0,0 l/m 0 min 0 min 32 W/m 6,4 km/h (2 Bft) 100,00 %
29.04.2023 07:58 9,4 C 9,4 C 5,6 C 97 % 1017,1 hPa 0,0 l/m 0 min 0 min 28 W/m 12,9 km/h (3 Bft) 100,00 %
29.04.2023 08:00 9,4 C 8,9 C 5,6 C 97 % 1017,1 hPa 0,0 l/m 0 min 0 min 28 W/m 12,9 km/h (3 Bft) 100,00 %
29.04.2023 08:02 9,4 C 8,9 C 5,6 C 97 % 1017,2 hPa 0,0 l/m 0 min 0 min 26 W/m 12,9 km/h (3 Bft) 100,00 %
29.04.2023 08:04 9,4 C 8,9 C 5,6 C 97 % 1017,2 hPa 0,0 l/m 0 min 0 min 26 W/m 9,7 km/h (2 Bft) 100,00 %
29.04.2023 08:06 9,4 C 8,9 C 5,6 C 97 % 1017,2 hPa 0,0 l/m 0 min 0 min 29 W/m 9,7 km/h (2 Bft) 95,74 %
29.04.2023 08:08 9,4 C 8,9 C 5,6 C 97 % 1017,2 hPa 0,0 l/m 0 min 0 min 29 W/m 16,1 km/h (3 Bft) 100,00 %
29.04.2023 08:10 9,4 C 8,9 C 5,6 C 97 % 1017,2 hPa 0,0 l/m 0 min 0 min 28 W/m 12,9 km/h (3 Bft) 100,00 %
29.04.2023 08:12 9,3 C 8,9 C 6,1 C 97 % 1017,3 hPa 0,0 l/m 0 min 0 min 30 W/m 6,4 km/h (2 Bft) 100,00 %
29.04.2023 08:14 9,4 C 8,9 C 5,6 C 97 % 1017,3 hPa 0,0 l/m 0 min 0 min 30 W/m 12,9 km/h (3 Bft) 100,00 %
29.04.2023 08:16 9,4 C 8,9 C 6,1 C 97 % 1017,4 hPa 0,0 l/m 0 min 0 min 30 W/m 9,7 km/h (2 Bft) 100,00 %
29.04.2023 08:18 9,3 C 8,9 C 6,1 C 97 % 1017,4 hPa 0,0 l/m 0 min 0 min 31 W/m 9,7 km/h (2 Bft) 97,87 %
29.04.2023 08:20 9,3 C 8,9 C 5,6 C 97 % 1017,5 hPa 0,0 l/m 0 min 0 min 31 W/m 12,9 km/h (3 Bft) 97,87 %
29.04.2023 08:22 9,3 C 8,9 C 6,1 C 97 % 1017,5 hPa 0,0 l/m 0 min 0 min 30 W/m 9,7 km/h (2 Bft) 100,00 %
29.04.2023 08:24 9,3 C 8,9 C 6,1 C 97 % 1017,5 hPa 0,0 l/m 0 min 0 min 31 W/m 19,3 km/h (3 Bft) 100,00 %
29.04.2023 08:26 9,3 C 8,9 C 6,1 C 97 % 1017,6 hPa 0,0 l/m 0 min 0 min 31 W/m 12,9 km/h (3 Bft) 97,87 %
29.04.2023 08:28 9,3 C 8,9 C 6,1 C 97 % 1017,5 hPa 0,0 l/m 0 min 0 min 28 W/m 9,7 km/h (2 Bft) 97,87 %
29.04.2023 08:30 9,3 C 8,9 C 6,1 C 97 % 1017,6 hPa 0,0 l/m 0 min 0 min 28 W/m 12,9 km/h (3 Bft) 95,74 %
29.04.2023 08:32 9,3 C 8,9 C 6,1 C 97 % 1017,6 hPa 0,0 l/m 0 min 0 min 26 W/m 12,9 km/h (3 Bft) 100,00 %
29.04.2023 08:34 9,3 C 8,9 C 6,1 C 97 % 1017,6 hPa 0,0 l/m 0 min 0 min 26 W/m 9,7 km/h (2 Bft) 100,00 %
29.04.2023 08:36 9,4 C 8,9 C 6,1 C 97 % 1017,6 hPa 0,0 l/m 0 min 0 min 28 W/m 12,9 km/h (3 Bft) 100,00 %
29.04.2023 08:38 9,4 C 8,9 C 6,1 C 97 % 1017,6 hPa 0,0 l/m 0 min 0 min 29 W/m 9,7 km/h (2 Bft) 100,00 %
29.04.2023 08:40 9,4 C 8,9 C 6,1 C 97 % 1017,7 hPa 0,0 l/m 0 min 0 min 30 W/m 6,4 km/h (2 Bft) 100,00 %
29.04.2023 08:42 9,4 C 8,9 C 6,1 C 97 % 1017,7 hPa 0,0 l/m 0 min 0 min 31 W/m 12,9 km/h (3 Bft) 100,00 %
29.04.2023 08:44 9,4 C 8,9 C 6,1 C 97 % 1017,7 hPa 0,0 l/m 0 min 0 min 34 W/m 12,9 km/h (3 Bft) 100,00 %
29.04.2023 08:46 9,4 C 8,9 C 6,1 C 97 % 1017,7 hPa 0,0 l/m 0 min 0 min 37 W/m 12,9 km/h (3 Bft) 100,00 %
29.04.2023 08:48 9,4 C 8,9 C 6,1 C 97 % 1017,8 hPa 0,0 l/m 0 min 0 min 39 W/m 12,9 km/h (3 Bft) 100,00 %
29.04.2023 08:50 9,4 C 9,4 C 6,1 C 97 % 1017,8 hPa 0,0 l/m 0 min 0 min 42 W/m 9,7 km/h (2 Bft) 100,00 %
29.04.2023 08:52 9,4 C 9,4 C 6,1 C 97 % 1017,8 hPa 0,0 l/m 0 min 0 min 41 W/m 12,9 km/h (3 Bft) 100,00 %
29.04.2023 08:54 9,4 C 8,9 C 6,1 C 97 % 1017,8 hPa 0,0 l/m 0 min 0 min 38 W/m 9,7 km/h (2 Bft) 100,00 %
29.04.2023 08:56 9,4 C 8,9 C 6,1 C 97 % 1017,9 hPa 0,0 l/m 0 min 0 min 36 W/m 12,9 km/h (3 Bft) 97,87 %
29.04.2023 08:58 9,4 C 8,9 C 6,1 C 97 % 1017,9 hPa 0,0 l/m 0 min 0 min 36 W/m 6,4 km/h (2 Bft) 100,00 %
29.04.2023 09:00 9,3 C 8,9 C 6,1 C 97 % 1017,9 hPa 0,0 l/m 0 min 0 min 41 W/m 9,7 km/h (2 Bft) 100,00 %
29.04.2023 09:02 9,3 C 8,9 C 6,1 C 97 % 1017,9 hPa 0,0 l/m 0 min 0 min 45 W/m 6,4 km/h (2 Bft) 100,00 %
29.04.2023 09:04 9,3 C 8,9 C 6,1 C 96 % 1017,9 hPa 0,0 l/m 0 min 0 min 49 W/m 9,7 km/h (2 Bft) 95,83 %
29.04.2023 09:06 9,3 C 8,9 C 6,1 C 97 % 1017,9 hPa 0,0 l/m 0 min 0 min 53 W/m 16,1 km/h (3 Bft) 95,65 %
29.04.2023 09:08 9,4 C 9,4 C 6,1 C 97 % 1018,0 hPa 0,0 l/m 0 min 0 min 56 W/m 9,7 km/h (2 Bft) 97,87 %
29.04.2023 09:10 9,3 C 9,4 C 6,1 C 97 % 1018,0 hPa 0,0 l/m 0 min 0 min 56 W/m 12,9 km/h (3 Bft) 97,87 %
29.04.2023 09:12 9,4 C 9,4 C 6,1 C 96 % 1018,0 hPa 0,0 l/m 0 min 0 min 58 W/m 12,9 km/h (3 Bft) 97,87 %
29.04.2023 09:14 9,4 C 9,4 C 6,1 C 96 % 1018,0 hPa 0,0 l/m 0 min 0 min 62 W/m 6,4 km/h (2 Bft) 95,74 %
29.04.2023 09:16 9,4 C 9,4 C 6,1 C 96 % 1018,0 hPa 0,0 l/m 0 min 0 min 68 W/m 9,7 km/h (2 Bft) 93,62 %
29.04.2023 09:18 9,4 C 9,4 C 6,1 C 96 % 1018,1 hPa 0,0 l/m 0 min 0 min 78 W/m 9,7 km/h (2 Bft) 93,62 %
29.04.2023 09:20 9,4 C 9,4 C 6,1 C 96 % 1018,0 hPa 0,0 l/m 0 min 0 min 87 W/m 9,7 km/h (2 Bft) 95,65 %
29.04.2023 09:22 9,4 C 9,4 C 6,7 C 96 % 1018,1 hPa 0,0 l/m 0 min 0 min 92 W/m 12,9 km/h (3 Bft) 95,74 %
29.04.2023 09:24 9,4 C 9,4 C 6,7 C 96 % 1018,1 hPa 0,0 l/m 0 min 0 min 98 W/m 9,7 km/h (2 Bft) 93,62 %
29.04.2023 09:26 9,5 C 9,4 C 6,7 C 96 % 1018,1 hPa 0,0 l/m 0 min 0 min 98 W/m 9,7 km/h (2 Bft) 93,62 %
29.04.2023 09:28 9,5 C 9,4 C 6,7 C 96 % 1018,2 hPa 0,0 l/m 0 min 0 min 99 W/m 12,9 km/h (3 Bft) 93,62 %
29.04.2023 09:30 9,6 C 10,0 C 6,7 C 96 % 1018,2 hPa 0,0 l/m 0 min 0 min 101 W/m 19,3 km/h (3 Bft) 93,62 %
29.04.2023 09:32 9,6 C 10,0 C 6,7 C 96 % 1018,3 hPa 0,0 l/m 0 min 0 min 105 W/m 12,9 km/h (3 Bft) 95,65 %
29.04.2023 09:34 9,6 C 10,0 C 6,7 C 96 % 1018,3 hPa 0,0 l/m 0 min 0 min 102 W/m 12,9 km/h (3 Bft) 95,74 %
29.04.2023 09:36 9,6 C 10,0 C 6,7 C 96 % 1018,3 hPa 0,0 l/m 0 min 0 min 108 W/m 16,1 km/h (3 Bft) 97,87 %
29.04.2023 09:38 9,6 C 10,0 C 6,7 C 96 % 1018,3 hPa 0,0 l/m 0 min 0 min 123 W/m 12,9 km/h (3 Bft) 97,87 %
29.04.2023 09:40 9,7 C 10,0 C 6,7 C 95 % 1018,4 hPa 0,0 l/m 0 min 0 min 125 W/m 9,7 km/h (2 Bft) 97,87 %
29.04.2023 09:42 9,7 C 10,0 C 6,7 C 95 % 1018,4 hPa 0,0 l/m 0 min 0 min 120 W/m 12,9 km/h (3 Bft) 97,87 %
29.04.2023 09:44 9,7 C 10,0 C 6,7 C 95 % 1018,4 hPa 0,0 l/m 0 min 0 min 121 W/m 12,9 km/h (3 Bft) 97,87 %
29.04.2023 09:46 9,8 C 10,0 C 7,2 C 95 % 1018,4 hPa 0,0 l/m 0 min 0 min 127 W/m 6,4 km/h (2 Bft) 95,65 %
29.04.2023 09:48 9,8 C 10,0 C 7,2 C 95 % 1018,4 hPa 0,0 l/m 0 min 0 min 155 W/m 9,7 km/h (2 Bft) 97,87 %
29.04.2023 09:50 9,9 C 10,6 C 7,2 C 95 % 1018,5 hPa 0,0 l/m 0 min 0 min 179 W/m 9,7 km/h (2 Bft) 97,87 %
29.04.2023 09:52 9,9 C 10,6 C 7,2 C 95 % 1018,5 hPa 0,0 l/m 0 min 0 min 173 W/m 9,7 km/h (2 Bft) 97,87 %
29.04.2023 09:54 10,0 C 10,6 C 7,2 C 95 % 1018,5 hPa 0,0 l/m 0 min 0 min 168 W/m 9,7 km/h (2 Bft) 97,87 %
29.04.2023 09:56 10,1 C 10,6 C 7,2 C 94 % 1018,5 hPa 0,0 l/m 0 min 0 min 170 W/m 19,3 km/h (3 Bft) 97,87 %
29.04.2023 09:58 10,1 C 10,6 C 7,2 C 95 % 1018,5 hPa 0,0 l/m 0 min 0 min 182 W/m 16,1 km/h (3 Bft) 97,87 %
29.04.2023 10:00 10,1 C 10,6 C 7,2 C 94 % 1018,6 hPa 0,0 l/m 0 min 0 min 186 W/m 9,7 km/h (2 Bft) 95,65 %
29.04.2023 10:02 10,2 C 10,6 C 7,2 C 94 % 1018,5 hPa 0,0 l/m 0 min 0 min 184 W/m 19,3 km/h (3 Bft) 95,74 %
29.04.2023 10:04 10,2 C 10,6 C 7,2 C 94 % 1018,5 hPa 0,0 l/m 0 min 0 min 191 W/m 12,9 km/h (3 Bft) 95,74 %
29.04.2023 10:06 10,2 C 10,6 C 7,2 C 93 % 1018,6 hPa 0,0 l/m 0 min 0 min 206 W/m 12,9 km/h (3 Bft) 95,74 %
29.04.2023 10:08 10,3 C 11,1 C 7,8 C 93 % 1018,6 hPa 0,0 l/m 0 min 0 min 207 W/m 12,9 km/h (3 Bft) 95,83 %
29.04.2023 10:10 10,3 C 11,1 C 7,8 C 93 % 1018,6 hPa 0,0 l/m 0 min 0 min 225 W/m 12,9 km/h (3 Bft) 100,00 %
29.04.2023 10:12 10,4 C 11,1 C 7,8 C 93 % 1018,6 hPa 0,0 l/m 0 min 0 min 238 W/m 9,7 km/h (2 Bft) 95,74 %
29.04.2023 10:14 10,4 C 11,1 C 7,8 C 93 % 1018,6 hPa 0,0 l/m 0 min 0 min 216 W/m 19,3 km/h (3 Bft) 97,87 %
29.04.2023 10:16 10,5 C 11,1 C 7,8 C 93 % 1018,6 hPa 0,0 l/m 0 min 0 min 183 W/m 16,1 km/h (3 Bft) 95,74 %
29.04.2023 10:18 10,5 C 11,1 C 7,8 C 92 % 1018,7 hPa 0,0 l/m 0 min 0 min 115 W/m 6,4 km/h (2 Bft) 96,15 %
29.04.2023 10:20 10,6 C 10,6 C 7,8 C 92 % 1018,7 hPa 0,0 l/m 0 min 0 min 99 W/m 16,1 km/h (3 Bft) 91,49 %
29.04.2023 10:22 10,6 C 10,6 C 7,2 C 91 % 1018,7 hPa 0,0 l/m 0 min 0 min 123 W/m 19,3 km/h (3 Bft) 93,62 %
29.04.2023 10:24 10,6 C 10,6 C 7,8 C 91 % 1018,8 hPa 0,0 l/m 0 min 0 min 150 W/m 16,1 km/h (3 Bft) 97,87 %
29.04.2023 10:26 10,6 C 10,6 C 7,8 C 91 % 1018,8 hPa 0,0 l/m 0 min 0 min 146 W/m 9,7 km/h (2 Bft) 97,87 %
29.04.2023 10:28 10,6 C 11,1 C 7,8 C 91 % 1018,8 hPa 0,0 l/m 0 min 0 min 123 W/m 16,1 km/h (3 Bft) 95,74 %
29.04.2023 10:30 10,6 C 10,6 C 7,2 C 91 % 1018,8 hPa 0,0 l/m 0 min 0 min 112 W/m 19,3 km/h (3 Bft) 97,83 %
29.04.2023 10:32 10,6 C 10,6 C 7,2 C 91 % 1018,8 hPa 0,0 l/m 0 min 0 min 114 W/m 12,9 km/h (3 Bft) 97,87 %
29.04.2023 10:34 10,6 C 10,6 C 7,2 C 90 % 1018,8 hPa 0,0 l/m 0 min 0 min 93 W/m 12,9 km/h (3 Bft) 93,62 %
29.04.2023 10:36 10,6 C 10,6 C 7,2 C 90 % 1018,8 hPa 0,0 l/m 0 min 0 min 90 W/m 19,3 km/h (3 Bft) 97,87 %
29.04.2023 10:38 10,7 C 10,6 C 7,2 C 90 % 1018,8 hPa 0,0 l/m 0 min 0 min 90 W/m 16,1 km/h (3 Bft) 95,74 %
29.04.2023 10:40 10,7 C 10,6 C 7,2 C 90 % 1018,9 hPa 0,0 l/m 0 min 0 min 80 W/m 16,1 km/h (3 Bft) 97,87 %
29.04.2023 10:42 10,6 C 10,6 C 7,2 C 90 % 1018,9 hPa 0,0 l/m 0 min 0 min 80 W/m 12,9 km/h (3 Bft) 97,87 %
29.04.2023 10:44 10,6 C 10,6 C 7,2 C 90 % 1018,9 hPa 0,0 l/m 0 min 0 min 73 W/m 16,1 km/h (3 Bft) 97,83 %
29.04.2023 10:46 10,6 C 10,6 C 7,2 C 90 % 1018,9 hPa 0,0 l/m 0 min 0 min 64 W/m 12,9 km/h (3 Bft) 100,00 %
29.04.2023 10:48 10,6 C 10,6 C 7,2 C 90 % 1018,9 hPa 0,0 l/m 0 min 0 min 72 W/m 16,1 km/h (3 Bft) 97,87 %
29.04.2023 10:50 10,6 C 10,0 C 7,2 C 90 % 1018,9 hPa 0,0 l/m 0 min 0 min 85 W/m 12,9 km/h (3 Bft) 100,00 %
29.04.2023 10:52 10,6 C 10,0 C 7,2 C 90 % 1019,0 hPa 0,0 l/m 0 min 0 min 86 W/m 3,2 km/h (1 Bft) 100,00 %
29.04.2023 10:54 10,6 C 10,6 C 7,2 C 90 % 1019,0 hPa 0,0 l/m 0 min 0 min 77 W/m 6,4 km/h (2 Bft) 100,00 %
29.04.2023 10:56 10,6 C 10,6 C 7,2 C 90 % 1019,0 hPa 0,0 l/m 0 min 0 min 67 W/m 19,3 km/h (3 Bft) 97,87 %
29.04.2023 10:58 10,6 C 10,0 C 7,2 C 90 % 1019,1 hPa 0,0 l/m 0 min 0 min 62 W/m 22,5 km/h (4 Bft) 97,83 %
29.04.2023 11:00 10,6 C 10,0 C 7,2 C 90 % 1019,2 hPa 0,0 l/m 0 min 0 min 71 W/m 16,1 km/h (3 Bft) 100,00 %
29.04.2023 11:02 10,6 C 10,0 C 7,2 C 90 % 1019,2 hPa 0,0 l/m 0 min 0 min 73 W/m 19,3 km/h (3 Bft) 100,00 %
29.04.2023 11:04 10,6 C 10,0 C 6,7 C 90 % 1019,2 hPa 0,0 l/m 0 min 0 min 72 W/m 16,1 km/h (3 Bft) 97,87 %
29.04.2023 11:06 10,6 C 10,0 C 6,7 C 90 % 1019,2 hPa 0,0 l/m 0 min 0 min 71 W/m 16,1 km/h (3 Bft) 96,67 %
29.04.2023 11:08 10,6 C 10,0 C 7,2 C 90 % 1019,3 hPa 0,0 l/m 0 min 0 min 78 W/m 12,9 km/h (3 Bft) 97,14 %
29.04.2023 11:10 10,6 C 10,0 C 7,2 C 90 % 1019,2 hPa 0,0 l/m 0 min 0 min 82 W/m 25,7 km/h (4 Bft) 97,87 %
29.04.2023 11:12 10,6 C 10,0 C 7,2 C 90 % 1019,2 hPa 0,0 l/m 0 min 0 min 90 W/m 9,7 km/h (2 Bft) 95,65 %
29.04.2023 11:14 10,6 C 10,6 C 7,2 C 90 % 1019,2 hPa 0,0 l/m 0 min 0 min 98 W/m 16,1 km/h (3 Bft) 95,74 %
29.04.2023 11:16 10,6 C 10,6 C 7,2 C 90 % 1019,2 hPa 0,0 l/m 0 min 0 min 103 W/m 12,9 km/h (3 Bft) 97,87 %
29.04.2023 11:18 10,6 C 10,6 C 7,2 C 90 % 1019,3 hPa 0,0 l/m 0 min 0 min 107 W/m 12,9 km/h (3 Bft) 97,87 %
29.04.2023 11:20 10,6 C 10,6 C 7,2 C 90 % 1019,3 hPa 0,0 l/m 0 min 0 min 112 W/m 12,9 km/h (3 Bft) 97,87 %
29.04.2023 11:22 10,6 C 10,6 C 7,2 C 90 % 1019,3 hPa 0,0 l/m 0 min 0 min 94 W/m 9,7 km/h (2 Bft) 97,87 %
29.04.2023 11:24 10,6 C 10,6 C 7,2 C 90 % 1019,2 hPa 0,0 l/m 0 min 0 min 93 W/m 6,4 km/h (2 Bft) 97,87 %
29.04.2023 11:26 10,6 C 10,6 C 7,2 C 90 % 1019,2 hPa 0,0 l/m 0 min 0 min 89 W/m 6,4 km/h (2 Bft) 97,83 %
29.04.2023 11:28 10,6 C 10,6 C 7,2 C 90 % 1019,2 hPa 0,0 l/m 0 min 0 min 92 W/m 9,7 km/h (2 Bft) 95,74 %
29.04.2023 11:30 10,6 C 10,6 C 7,2 C 90 % 1019,3 hPa 0,0 l/m 0 min 0 min 103 W/m 12,9 km/h (3 Bft) 97,87 %
29.04.2023 11:32 10,6 C 10,6 C 7,2 C 90 % 1019,3 hPa 0,0 l/m 0 min 0 min 110 W/m 16,1 km/h (3 Bft) 97,87 %
29.04.2023 11:34 10,6 C 10,6 C 7,2 C 90 % 1019,3 hPa 0,0 l/m 0 min 0 min 121 W/m 16,1 km/h (3 Bft) 97,87 %
29.04.2023 11:36 10,6 C 10,6 C 7,2 C 90 % 1019,3 hPa 0,0 l/m 0 min 0 min 133 W/m 9,7 km/h (2 Bft) 100,00 %
29.04.2023 11:38 10,6 C 10,6 C 7,2 C 90 % 1019,3 hPa 0,0 l/m 0 min 0 min 138 W/m 16,1 km/h (3 Bft) 100,00 %
29.04.2023 11:40 10,6 C 10,6 C 7,2 C 90 % 1019,3 hPa 0,0 l/m 0 min 0 min 120 W/m 9,7 km/h (2 Bft) 100,00 %
29.04.2023 11:42 10,7 C 10,6 C 7,2 C 90 % 1019,4 hPa 0,0 l/m 0 min 0 min 106 W/m 16,1 km/h (3 Bft) 100,00 %
29.04.2023 11:44 10,7 C 10,6 C 7,2 C 90 % 1019,4 hPa 0,0 l/m 0 min 0 min 103 W/m 9,7 km/h (2 Bft) 100,00 %
29.04.2023 11:46 10,7 C 10,6 C 7,2 C 90 % 1019,4 hPa 0,0 l/m 0 min 0 min 99 W/m 6,4 km/h (2 Bft) 100,00 %
29.04.2023 11:48 10,7 C 10,6 C 7,2 C 90 % 1019,4 hPa 0,0 l/m 0 min 0 min 88 W/m 6,4 km/h (2 Bft) 100,00 %
29.04.2023 11:50 10,8 C 11,1 C 7,2 C 90 % 1019,4 hPa 0,0 l/m 0 min 0 min 91 W/m 9,7 km/h (2 Bft) 100,00 %
29.04.2023 11:52 10,8 C 10,6 C 7,2 C 90 % 1019,5 hPa 0,0 l/m 0 min 0 min 91 W/m 16,1 km/h (3 Bft) 97,87 %
29.04.2023 11:54 10,8 C 11,1 C 7,2 C 90 % 1019,5 hPa 0,0 l/m 0 min 0 min 91 W/m 9,7 km/h (2 Bft) 100,00 %
29.04.2023 11:56 10,8 C 10,6 C 7,2 C 90 % 1019,4 hPa 0,0 l/m 0 min 0 min 94 W/m 9,7 km/h (2 Bft) 97,87 %
29.04.2023 11:58 10,8 C 10,6 C 7,2 C 90 % 1019,5 hPa 0,0 l/m 0 min 0 min 97 W/m 9,7 km/h (2 Bft) 100,00 %
29.04.2023 12:00 10,8 C 10,6 C 7,2 C 90 % 1019,6 hPa 0,0 l/m 0 min 0 min 98 W/m 9,7 km/h (2 Bft) 100,00 %
29.04.2023 12:02 10,8 C 11,1 C 7,2 C 90 % 1019,5 hPa 0,0 l/m 0 min 0 min 97 W/m 6,4 km/h (2 Bft) 100,00 %
29.04.2023 12:04 10,8 C 11,1 C 7,2 C 90 % 1019,6 hPa 0,0 l/m 0 min 0 min 99 W/m 6,4 km/h (2 Bft) 100,00 %
29.04.2023 12:07 10,9 C 11,1 C 7,8 C 90 % 1019,6 hPa 0,0 l/m 0 min 0 min 119 W/m 9,7 km/h (2 Bft) 100,00 %
29.04.2023 12:08 10,9 C 11,1 C 7,8 C 90 % 1019,6 hPa 0,0 l/m 0 min 0 min 121 W/m 6,4 km/h (2 Bft) 91,30 %
29.04.2023 12:12 11,0 C 11,7 C 7,8 C 90 % 1019,6 hPa 0,0 l/m 0 min 0 min 143 W/m 6,4 km/h (2 Bft) 100,00 %
29.04.2023 12:14 11,0 C 11,7 C 7,8 C 90 % 1019,7 hPa 0,0 l/m 0 min 0 min 141 W/m 6,4 km/h (2 Bft) 100,00 %
29.04.2023 12:16 11,1 C 11,7 C 7,8 C 90 % 1019,7 hPa 0,0 l/m 0 min 0 min 120 W/m 6,4 km/h (2 Bft) 100,00 %
29.04.2023 12:18 11,1 C 11,7 C 7,8 C 90 % 1019,8 hPa 0,0 l/m 0 min 0 min 101 W/m 6,4 km/h (2 Bft) 97,87 %
29.04.2023 12:20 11,1 C 11,7 C 7,8 C 90 % 1019,8 hPa 0,0 l/m 0 min 0 min 99 W/m 12,9 km/h (3 Bft) 100,00 %
29.04.2023 12:22 11,1 C 11,1 C 7,8 C 89 % 1019,9 hPa 0,0 l/m 0 min 0 min 107 W/m 12,9 km/h (3 Bft) 100,00 %
29.04.2023 12:24 11,1 C 11,1 C 7,8 C 89 % 1019,9 hPa 0,0 l/m 0 min 0 min 109 W/m 12,9 km/h (3 Bft) 93,48 %
29.04.2023 12:26 11,1 C 11,1 C 7,8 C 89 % 1019,9 hPa 0,0 l/m 0 min 0 min 110 W/m 12,9 km/h (3 Bft) 97,87 %
29.04.2023 12:28 11,1 C 11,1 C 7,8 C 89 % 1019,9 hPa 0,0 l/m 0 min 0 min 108 W/m 12,9 km/h (3 Bft) 97,87 %
29.04.2023 12:30 11,1 C 11,1 C 7,8 C 89 % 1019,9 hPa 0,0 l/m 0 min 0 min 120 W/m 12,9 km/h (3 Bft) 97,87 %
29.04.2023 12:32 11,1 C 11,1 C 7,8 C 89 % 1019,9 hPa 0,0 l/m 0 min 0 min 129 W/m 9,7 km/h (2 Bft) 100,00 %
29.04.2023 12:34 11,1 C 11,1 C 7,8 C 88 % 1019,9 hPa 0,0 l/m 0 min 0 min 131 W/m 9,7 km/h (2 Bft) 97,87 %
29.04.2023 12:36 11,2 C 11,1 C 7,8 C 88 % 1019,9 hPa 0,0 l/m 0 min 0 min 136 W/m 6,4 km/h (2 Bft) 97,87 %
29.04.2023 12:38 11,2 C 11,7 C 7,8 C 88 % 1019,9 hPa 0,0 l/m 0 min 0 min 131 W/m 6,4 km/h (2 Bft) 100,00 %
29.04.2023 12:40 11,2 C 11,7 C 7,8 C 88 % 1019,9 hPa 0,0 l/m 0 min 0 min 129 W/m 9,7 km/h (2 Bft) 97,87 %
29.04.2023 12:42 11,2 C 11,7 C 7,8 C 88 % 1019,9 hPa 0,0 l/m 0 min 0 min 123 W/m 9,7 km/h (2 Bft) 97,87 %
29.04.2023 12:44 11,3 C 11,7 C 7,8 C 88 % 1019,9 hPa 0,0 l/m 0 min 0 min 126 W/m 9,7 km/h (2 Bft) 95,74 %
29.04.2023 12:46 11,3 C 11,7 C 7,8 C 88 % 1019,9 hPa 0,0 l/m 0 min 0 min 141 W/m 16,1 km/h (3 Bft) 93,62 %
29.04.2023 12:48 11,3 C 11,7 C 7,8 C 88 % 1019,9 hPa 0,0 l/m 0 min 0 min 166 W/m 6,4 km/h (2 Bft) 95,74 %
29.04.2023 12:50 11,3 C 11,7 C 8,3 C 88 % 1019,9 hPa 0,0 l/m 0 min 0 min 187 W/m 6,4 km/h (2 Bft) 95,74 %
29.04.2023 12:52 11,4 C 11,7 C 8,3 C 88 % 1019,9 hPa 0,0 l/m 0 min 0 min 185 W/m 9,7 km/h (2 Bft) 91,30 %
29.04.2023 12:54 11,4 C 12,2 C 8,3 C 88 % 1020,0 hPa 0,0 l/m 0 min 0 min 174 W/m 6,4 km/h (2 Bft) 95,74 %
29.04.2023 12:56 11,5 C 12,2 C 8,3 C 88 % 1020,0 hPa 0,0 l/m 0 min 0 min 187 W/m 12,9 km/h (3 Bft) 95,74 %
29.04.2023 12:58 11,6 C 12,2 C 8,3 C 88 % 1019,9 hPa 0,0 l/m 0 min 0 min 202 W/m 9,7 km/h (2 Bft) 95,74 %
29.04.2023 13:00 11,6 C 12,2 C 8,3 C 88 % 1019,9 hPa 0,0 l/m 0 min 0 min 206 W/m 6,4 km/h (2 Bft) 95,74 %
29.04.2023 13:02 11,6 C 12,2 C 8,3 C 88 % 1019,9 hPa 0,0 l/m 0 min 0 min 177 W/m 6,4 km/h (2 Bft) 91,49 %
29.04.2023 13:04 11,7 C 12,2 C 8,3 C 87 % 1020,0 hPa 0,0 l/m 0 min 0 min 173 W/m 9,7 km/h (2 Bft) 89,36 %
29.04.2023 13:06 11,7 C 12,2 C 8,3 C 87 % 1020,0 hPa 0,0 l/m 0 min 0 min 173 W/m 9,7 km/h (2 Bft) 91,38 %
29.04.2023 13:08 11,7 C 12,2 C 8,3 C 87 % 1020,0 hPa 0,0 l/m 0 min 0 min 181 W/m 12,9 km/h (3 Bft) 88,89 %
29.04.2023 13:10 11,8 C 12,2 C 8,3 C 87 % 1020,0 hPa 0,0 l/m 0 min 0 min 200 W/m 9,7 km/h (2 Bft) 95,74 %
29.04.2023 13:12 11,8 C 12,2 C 8,9 C 87 % 1020,0 hPa 0,0 l/m 0 min 0 min 216 W/m 12,9 km/h (3 Bft) 93,62 %
29.04.2023 13:14 11,8 C 12,8 C 8,9 C 87 % 1020,0 hPa 0,0 l/m 0 min 0 min 223 W/m 16,1 km/h (3 Bft) 93,62 %
29.04.2023 13:16 11,9 C 12,2 C 8,9 C 86 % 1020,0 hPa 0,0 l/m 0 min 0 min 234 W/m 12,9 km/h (3 Bft) 93,62 %
29.04.2023 13:18 11,9 C 12,8 C 8,9 C 86 % 1020,0 hPa 0,0 l/m 0 min 0 min 211 W/m 3,2 km/h (1 Bft) 93,62 %
29.04.2023 13:20 11,9 C 12,8 C 8,9 C 86 % 1020,0 hPa 0,0 l/m 0 min 0 min 205 W/m 3,2 km/h (1 Bft) 91,49 %
29.04.2023 13:22 12,0 C 12,8 C 8,9 C 86 % 1020,0 hPa 0,0 l/m 0 min 0 min 206 W/m 9,7 km/h (2 Bft) 95,65 %
29.04.2023 13:24 12,1 C 12,8 C 8,9 C 86 % 1020,0 hPa 0,0 l/m 0 min 0 min 217 W/m 6,4 km/h (2 Bft) 95,74 %
29.04.2023 13:26 12,1 C 12,8 C 8,9 C 86 % 1020,0 hPa 0,0 l/m 0 min 0 min 213 W/m 3,2 km/h (1 Bft) 93,62 %
29.04.2023 13:28 12,2 C 12,8 C 8,9 C 86 % 1020,0 hPa 0,0 l/m 0 min 0 min 195 W/m 9,7 km/h (2 Bft) 95,74 %
29.04.2023 13:30 12,2 C 12,8 C 8,9 C 86 % 1020,0 hPa 0,0 l/m 0 min 0 min 192 W/m 12,9 km/h (3 Bft) 97,87 %
29.04.2023 13:32 12,2 C 12,8 C 8,9 C 86 % 1020,0 hPa 0,0 l/m 0 min 0 min 218 W/m 6,4 km/h (2 Bft) 97,87 %
29.04.2023 13:34 12,3 C 12,8 C 8,9 C 85 % 1020,0 hPa 0,0 l/m 0 min 0 min 255 W/m 12,9 km/h (3 Bft) 97,87 %
29.04.2023 13:36 12,3 C 13,3 C 9,4 C 85 % 1020,0 hPa 0,0 l/m 0 min 0 min 300 W/m 12,9 km/h (3 Bft) 97,83 %
29.04.2023 13:38 12,3 C 13,9 C 9,4 C 85 % 1020,0 hPa 0,0 l/m 0 min 0 min 358 W/m 16,1 km/h (3 Bft) 95,74 %
29.04.2023 13:40 12,4 C 13,9 C 9,4 C 85 % 1019,9 hPa 0,0 l/m 0 min 0 min 383 W/m 19,3 km/h (3 Bft) 100,00 %
29.04.2023 13:42 12,5 C 14,4 C 9,4 C 84 % 1020,0 hPa 0,0 l/m 2 min 0 min 396 W/m 9,7 km/h (2 Bft) 100,00 %
29.04.2023 13:44 12,6 C 14,4 C 10,0 C 84 % 1020,0 hPa 0,0 l/m 2 min 0 min 403 W/m 9,7 km/h (2 Bft) 100,00 %
29.04.2023 13:46 12,7 C 15,0 C 10,0 C 84 % 1019,9 hPa 0,0 l/m 2 min 0 min 403 W/m 9,7 km/h (2 Bft) 97,87 %
29.04.2023 13:48 12,8 C 15,0 C 10,0 C 84 % 1019,9 hPa 0,0 l/m 2 min 0 min 395 W/m 9,7 km/h (2 Bft) 100,00 %
29.04.2023 13:50 12,9 C 15,0 C 10,0 C 84 % 1019,9 hPa 0,0 l/m 0 min 0 min 363 W/m 9,7 km/h (2 Bft) 100,00 %
29.04.2023 13:52 12,9 C 14,4 C 10,0 C 83 % 1019,9 hPa 0,0 l/m 0 min 0 min 332 W/m 16,1 km/h (3 Bft) 100,00 %
29.04.2023 13:54 13,0 C 14,4 C 10,0 C 83 % 1019,9 hPa 0,0 l/m 0 min 0 min 320 W/m 6,4 km/h (2 Bft) 100,00 %
29.04.2023 13:56 13,0 C 13,9 C 10,0 C 83 % 1020,0 hPa 0,0 l/m 0 min 0 min 338 W/m 6,4 km/h (2 Bft) 100,00 %
29.04.2023 13:58 13,1 C 14,4 C 10,0 C 83 % 1020,0 hPa 0,0 l/m 0 min 0 min 383 W/m 12,9 km/h (3 Bft) 100,00 %
29.04.2023 14:00 13,1 C 14,4 C 10,0 C 83 % 1020,0 hPa 0,0 l/m 2 min 0 min 405 W/m 9,7 km/h (2 Bft) 100,00 %
29.04.2023 14:02 13,1 C 14,4 C 10,0 C 82 % 1019,9 hPa 0,0 l/m 2 min 0 min 432 W/m 6,4 km/h (2 Bft) 97,83 %
29.04.2023 14:04 13,2 C 15,0 C 10,6 C 83 % 1020,0 hPa 0,0 l/m 2 min 0 min 479 W/m 16,1 km/h (3 Bft) 100,00 %
29.04.2023 14:06 13,3 C 15,0 C 10,6 C 83 % 1020,0 hPa 0,0 l/m 2 min 0 min 485 W/m 12,9 km/h (3 Bft) 100,00 %
29.04.2023 14:08 13,4 C 15,0 C 10,6 C 82 % 1020,0 hPa 0,0 l/m 2 min 0 min 460 W/m 16,1 km/h (3 Bft) 100,00 %
29.04.2023 14:10 13,5 C 15,6 C 10,6 C 82 % 1020,0 hPa 0,0 l/m 2 min 0 min 467 W/m 9,7 km/h (2 Bft) 100,00 %
29.04.2023 14:12 13,6 C 15,6 C 11,1 C 81 % 1019,9 hPa 0,0 l/m 2 min 0 min 461 W/m 9,7 km/h (2 Bft) 100,00 %
29.04.2023 14:14 13,6 C 15,6 C 10,6 C 81 % 1019,9 hPa 0,0 l/m 2 min 0 min 440 W/m 6,4 km/h (2 Bft) 100,00 %
29.04.2023 14:16 13,6 C 15,6 C 11,1 C 80 % 1020,0 hPa 0,0 l/m 2 min 0 min 390 W/m 3,2 km/h (1 Bft) 100,00 %
29.04.2023 14:18 13,7 C 15,6 C 11,1 C 81 % 1020,0 hPa 0,0 l/m 2 min 0 min 386 W/m 12,9 km/h (3 Bft) 100,00 %
29.04.2023 14:20 13,7 C 15,6 C 11,1 C 80 % 1020,0 hPa 0,0 l/m 2 min 0 min 399 W/m 19,3 km/h (3 Bft) 100,00 %
29.04.2023 14:22 13,8 C 15,6 C 11,1 C 80 % 1019,9 hPa 0,0 l/m 0 min 0 min 353 W/m 6,4 km/h (2 Bft) 100,00 %
29.04.2023 14:24 13,8 C 15,6 C 11,1 C 80 % 1020,0 hPa 0,0 l/m 0 min 0 min 356 W/m 6,4 km/h (2 Bft) 100,00 %
29.04.2023 14:26 13,9 C 15,6 C 11,1 C 80 % 1020,0 hPa 0,0 l/m 0 min 0 min 351 W/m 9,7 km/h (2 Bft) 100,00 %
29.04.2023 14:28 13,9 C 16,1 C 11,1 C 79 % 1019,9 hPa 0,0 l/m 2 min 0 min 417 W/m 6,4 km/h (2 Bft) 100,00 %
29.04.2023 14:30 14,0 C 17,8 C 11,1 C 79 % 1020,0 hPa 0,0 l/m 2 min 0 min 575 W/m 6,4 km/h (2 Bft) 100,00 %
29.04.2023 14:32 14,2 C 20,0 C 11,7 C 79 % 1020,0 hPa 0,0 l/m 2 min 0 min 851 W/m 6,4 km/h (2 Bft) 100,00 %
29.04.2023 14:34 14,3 C 21,7 C 11,7 C 79 % 1020,0 hPa 0,0 l/m 2 min 0 min 1020 W/m 6,4 km/h (2 Bft) 100,00 %
29.04.2023 14:36 14,6 C 20,6 C 11,7 C 79 % 1020,0 hPa 0,0 l/m 2 min 0 min 515 W/m 6,4 km/h (2 Bft) 100,00 %
29.04.2023 14:38 14,7 C 19,4 C 11,7 C 78 % 1020,0 hPa 0,0 l/m 0 min 0 min 348 W/m 6,4 km/h (2 Bft) 100,00 %
29.04.2023 14:40 14,8 C 17,8 C 11,7 C 77 % 1020,0 hPa 0,0 l/m 0 min 0 min 321 W/m 9,7 km/h (2 Bft) 100,00 %
29.04.2023 14:42 14,6 C 16,7 C 11,1 C 76 % 1020,0 hPa 0,0 l/m 0 min 0 min 271 W/m 3,2 km/h (1 Bft) 100,00 %
29.04.2023 14:44 14,6 C 17,2 C 11,1 C 77 % 1020,0 hPa 0,0 l/m 0 min 0 min 312 W/m 3,2 km/h (1 Bft) 100,00 %
29.04.2023 14:46 14,6 C 16,7 C 11,1 C 77 % 1020,0 hPa 0,0 l/m 0 min 0 min 321 W/m 3,2 km/h (1 Bft) 100,00 %
29.04.2023 14:48 14,5 C 16,1 C 11,1 C 76 % 1020,0 hPa 0,0 l/m 0 min 0 min 281 W/m 6,4 km/h (2 Bft) 100,00 %
29.04.2023 14:50 14,4 C 16,1 C 10,6 C 75 % 1020,0 hPa 0,0 l/m 0 min 0 min 348 W/m 6,4 km/h (2 Bft) 100,00 %
29.04.2023 14:52 14,4 C 16,7 C 10,6 C 75 % 1019,9 hPa 0,0 l/m 2 min 0 min 386 W/m 9,7 km/h (2 Bft) 100,00 %
29.04.2023 14:54 14,5 C 17,8 C 11,1 C 76 % 1019,9 hPa 0,0 l/m 2 min 0 min 390 W/m 6,4 km/h (2 Bft) 100,00 %
29.04.2023 14:56 14,6 C 17,8 C 11,1 C 75 % 1020,0 hPa 0,0 l/m 2 min 0 min 710 W/m 6,4 km/h (2 Bft) 100,00 %
29.04.2023 14:58 14,7 C 17,2 C 11,1 C 75 % 1020,0 hPa 0,0 l/m 0 min 0 min 272 W/m 9,7 km/h (2 Bft) 100,00 %
29.04.2023 15:00 14,7 C 16,7 C 11,1 C 75 % 1020,0 hPa 0,0 l/m 0 min 0 min 247 W/m 6,4 km/h (2 Bft) 100,00 %
29.04.2023 15:02 14,7 C 15,6 C 11,1 C 74 % 1020,0 hPa 0,0 l/m 0 min 0 min 213 W/m 3,2 km/h (1 Bft) 100,00 %
29.04.2023 15:04 14,7 C 15,6 C 10,6 C 74 % 1020,0 hPa 0,0 l/m 0 min 0 min 169 W/m 3,2 km/h (1 Bft) 100,00 %
29.04.2023 15:06 14,6 C 15,0 C 10,6 C 74 % 1020,0 hPa 0,0 l/m 0 min 0 min 129 W/m 3,2 km/h (1 Bft) 97,87 %
29.04.2023 15:08 14,6 C 14,4 C 10,6 C 74 % 1020,1 hPa 0,0 l/m 0 min 0 min 93 W/m 0,0 km/h (0 Bft) 100,00 %
29.04.2023 15:10 14,6 C 14,4 C 10,0 C 73 % 1020,1 hPa 0,0 l/m 0 min 0 min 66 W/m 3,2 km/h (1 Bft) 97,37 %
29.04.2023 15:12 14,6 C 13,9 C 10,0 C 73 % 1020,1 hPa 0,0 l/m 0 min 0 min 66 W/m 3,2 km/h (1 Bft) 97,87 %
29.04.2023 15:14 14,5 C 13,9 C 10,0 C 74 % 1020,1 hPa 0,0 l/m 0 min 0 min 64 W/m 0,0 km/h (0 Bft) 95,65 %
29.04.2023 15:16 14,5 C 13,9 C 10,0 C 74 % 1020,1 hPa 0,0 l/m 0 min 0 min 62 W/m 3,2 km/h (1 Bft) 97,87 %
29.04.2023 15:18 14,4 C 13,9 C 10,0 C 75 % 1020,1 hPa 0,0 l/m 0 min 0 min 69 W/m 3,2 km/h (1 Bft) 97,87 %
29.04.2023 15:20 14,4 C 13,9 C 10,0 C 75 % 1020,1 hPa 0,0 l/m 0 min 0 min 71 W/m 6,4 km/h (2 Bft) 93,62 %
29.04.2023 15:22 14,4 C 13,9 C 10,0 C 75 % 1020,1 hPa 0,0 l/m 0 min 0 min 69 W/m 0,0 km/h (0 Bft) 95,74 %
29.04.2023 15:24 14,4 C 13,9 C 10,0 C 75 % 1020,2 hPa 0,0 l/m 0 min 0 min 69 W/m 0,0 km/h (0 Bft) 91,49 %
29.04.2023 15:26 14,3 C 13,9 C 10,0 C 75 % 1020,2 hPa 0,0 l/m 0 min 0 min 69 W/m 3,2 km/h (1 Bft) 95,74 %
29.04.2023 15:28 14,3 C 13,9 C 10,0 C 75 % 1020,2 hPa 0,0 l/m 0 min 0 min 70 W/m 6,4 km/h (2 Bft) 93,62 %
29.04.2023 15:30 14,3 C 13,3 C 10,0 C 75 % 1020,1 hPa 0,0 l/m 0 min 0 min 73 W/m 3,2 km/h (1 Bft) 95,65 %
29.04.2023 15:32 14,3 C 13,3 C 10,0 C 75 % 1020,1 hPa 0,0 l/m 0 min 0 min 74 W/m 3,2 km/h (1 Bft) 95,74 %
29.04.2023 15:34 14,3 C 13,9 C 10,0 C 75 % 1020,2 hPa 0,0 l/m 0 min 0 min 74 W/m 9,7 km/h (2 Bft) 95,74 %
29.04.2023 15:36 14,3 C 13,3 C 10,0 C 75 % 1020,2 hPa 0,0 l/m 0 min 0 min 77 W/m 9,7 km/h (2 Bft) 93,62 %
29.04.2023 15:38 14,3 C 13,3 C 9,4 C 76 % 1020,2 hPa 0,0 l/m 0 min 0 min 80 W/m 9,7 km/h (2 Bft) 95,74 %
29.04.2023 15:40 14,1 C 13,3 C 9,4 C 76 % 1020,2 hPa 0,0 l/m 0 min 0 min 85 W/m 9,7 km/h (2 Bft) 95,74 %
29.04.2023 15:42 14,1 C 13,3 C 9,4 C 76 % 1020,2 hPa 0,0 l/m 0 min 0 min 101 W/m 12,9 km/h (3 Bft) 91,49 %
29.04.2023 15:44 14,0 C 13,3 C 9,4 C 75 % 1020,2 hPa 0,0 l/m 0 min 0 min 117 W/m 6,4 km/h (2 Bft) 95,65 %
29.04.2023 15:46 13,9 C 13,3 C 10,0 C 76 % 1020,2 hPa 0,0 l/m 0 min 0 min 136 W/m 6,4 km/h (2 Bft) 95,74 %
29.04.2023 15:48 13,9 C 13,9 C 10,0 C 76 % 1020,2 hPa 0,0 l/m 0 min 0 min 149 W/m 9,7 km/h (2 Bft) 93,62 %
29.04.2023 15:50 13,9 C 13,9 C 10,0 C 76 % 1020,2 hPa 0,0 l/m 0 min 0 min 161 W/m 9,7 km/h (2 Bft) 95,74 %
29.04.2023 15:52 13,9 C 13,9 C 10,0 C 76 % 1020,2 hPa 0,0 l/m 0 min 0 min 179 W/m 9,7 km/h (2 Bft) 93,62 %
29.04.2023 15:54 13,9 C 13,9 C 10,0 C 76 % 1020,2 hPa 0,0 l/m 0 min 0 min 198 W/m 9,7 km/h (2 Bft) 97,87 %
29.04.2023 15:56 14,0 C 14,4 C 10,6 C 77 % 1020,3 hPa 0,0 l/m 0 min 0 min 199 W/m 6,4 km/h (2 Bft) 100,00 %
29.04.2023 15:58 14,1 C 14,4 C 10,6 C 76 % 1020,3 hPa 0,0 l/m 0 min 0 min 199 W/m 16,1 km/h (3 Bft) 97,87 %
29.04.2023 16:00 14,1 C 14,4 C 10,6 C 76 % 1020,3 hPa 0,0 l/m 0 min 0 min 201 W/m 6,4 km/h (2 Bft) 98,08 %
29.04.2023 16:02 14,1 C 14,4 C 10,6 C 76 % 1020,3 hPa 0,0 l/m 0 min 0 min 200 W/m 9,7 km/h (2 Bft) 97,87 %
29.04.2023 16:04 14,1 C 14,4 C 10,6 C 76 % 1020,2 hPa 0,0 l/m 0 min 0 min 203 W/m 3,2 km/h (1 Bft) 98,00 %
29.04.2023 16:06 14,2 C 14,4 C 10,6 C 76 % 1020,2 hPa 0,0 l/m 0 min 0 min 210 W/m 9,7 km/h (2 Bft) 97,87 %
29.04.2023 16:08 14,2 C 14,4 C 10,6 C 76 % 1020,2 hPa 0,0 l/m 0 min 0 min 221 W/m 6,4 km/h (2 Bft) 97,92 %
29.04.2023 16:10 14,3 C 15,0 C 10,6 C 76 % 1020,3 hPa 0,0 l/m 0 min 0 min 219 W/m 6,4 km/h (2 Bft) 95,65 %
29.04.2023 16:12 14,3 C 15,0 C 10,6 C 76 % 1020,2 hPa 0,0 l/m 0 min 0 min 200 W/m 9,7 km/h (2 Bft) 97,87 %
29.04.2023 16:14 14,3 C 15,0 C 10,6 C 75 % 1020,2 hPa 0,0 l/m 0 min 0 min 194 W/m 9,7 km/h (2 Bft) 97,87 %
29.04.2023 16:16 14,3 C 15,0 C 10,6 C 75 % 1020,3 hPa 0,0 l/m 0 min 0 min 191 W/m 3,2 km/h (1 Bft) 95,74 %
29.04.2023 16:18 14,3 C 15,0 C 10,6 C 74 % 1020,3 hPa 0,0 l/m 0 min 0 min 180 W/m 6,4 km/h (2 Bft) 97,87 %
29.04.2023 16:20 14,3 C 15,0 C 10,6 C 75 % 1020,3 hPa 0,0 l/m 0 min 0 min 175 W/m 6,4 km/h (2 Bft) 95,74 %
29.04.2023 16:22 14,3 C 15,0 C 10,6 C 75 % 1020,3 hPa 0,0 l/m 0 min 0 min 184 W/m 9,7 km/h (2 Bft) 97,87 %
29.04.2023 16:24 14,4 C 15,0 C 10,6 C 75 % 1020,3 hPa 0,0 l/m 0 min 0 min 195 W/m 6,4 km/h (2 Bft) 97,83 %
29.04.2023 16:26 14,4 C 14,4 C 10,6 C 75 % 1020,3 hPa 0,0 l/m 0 min 0 min 200 W/m 0,0 km/h (0 Bft) 97,87 %
29.04.2023 16:28 14,4 C 14,4 C 10,6 C 75 % 1020,3 hPa 0,0 l/m 0 min 0 min 202 W/m 6,4 km/h (2 Bft) 97,87 %
29.04.2023 16:30 14,4 C 14,4 C 10,6 C 75 % 1020,3 hPa 0,0 l/m 0 min 0 min 198 W/m 9,7 km/h (2 Bft) 97,87 %
29.04.2023 16:32 14,4 C 14,4 C 10,6 C 75 % 1020,3 hPa 0,0 l/m 0 min 0 min 194 W/m 9,7 km/h (2 Bft) 97,87 %
29.04.2023 16:34 14,5 C 15,0 C 10,6 C 75 % 1020,4 hPa 0,0 l/m 0 min 0 min 198 W/m 12,9 km/h (3 Bft) 97,87 %
29.04.2023 16:36 14,5 C 15,0 C 10,6 C 75 % 1020,4 hPa 0,0 l/m 0 min 0 min 197 W/m 9,7 km/h (2 Bft) 97,87 %
29.04.2023 16:38 14,6 C 15,0 C 10,6 C 75 % 1020,4 hPa 0,0 l/m 0 min 0 min 195 W/m 9,7 km/h (2 Bft) 97,87 %
29.04.2023 16:40 14,6 C 15,0 C 10,6 C 75 % 1020,5 hPa 0,0 l/m 0 min 0 min 210 W/m 12,9 km/h (3 Bft) 97,83 %
29.04.2023 16:42 14,6 C 15,0 C 10,6 C 75 % 1020,5 hPa 0,0 l/m 0 min 0 min 210 W/m 12,9 km/h (3 Bft) 95,74 %
29.04.2023 16:44 14,6 C 15,0 C 10,6 C 75 % 1020,5 hPa 0,0 l/m 0 min 0 min 198 W/m 12,9 km/h (3 Bft) 97,87 %
29.04.2023 16:46 14,6 C 15,0 C 10,6 C 75 % 1020,5 hPa 0,0 l/m 0 min 0 min 191 W/m 12,9 km/h (3 Bft) 97,87 %
29.04.2023 16:48 14,6 C 14,4 C 10,6 C 74 % 1020,6 hPa 0,0 l/m 0 min 0 min 192 W/m 6,4 km/h (2 Bft) 97,87 %
29.04.2023 16:50 14,6 C 14,4 C 10,6 C 75 % 1020,6 hPa 0,0 l/m 0 min 0 min 201 W/m 6,4 km/h (2 Bft) 93,62 %
29.04.2023 16:52 14,6 C 15,0 C 10,6 C 75 % 1020,6 hPa 0,0 l/m 0 min 0 min 196 W/m 6,4 km/h (2 Bft) 97,83 %
29.04.2023 16:54 14,6 C 15,0 C 10,6 C 75 % 1020,6 hPa 0,0 l/m 0 min 0 min 186 W/m 9,7 km/h (2 Bft) 97,92 %
29.04.2023 16:56 14,6 C 15,0 C 10,6 C 75 % 1020,7 hPa 0,0 l/m 0 min 0 min 180 W/m 16,1 km/h (3 Bft) 97,83 %
29.04.2023 16:58 14,6 C 14,4 C 10,6 C 74 % 1020,6 hPa 0,0 l/m 0 min 0 min 180 W/m 12,9 km/h (3 Bft) 97,87 %
29.04.2023 17:00 14,6 C 14,4 C 10,6 C 74 % 1020,7 hPa 0,0 l/m 0 min 0 min 174 W/m 9,7 km/h (2 Bft) 48,72 %
29.04.2023 17:02 14,6 C 14,4 C 10,6 C 74 % 1020,6 hPa 0,0 l/m 0 min 0 min 167 W/m 9,7 km/h (2 Bft) 97,87 %
29.04.2023 17:04 14,6 C 14,4 C 10,6 C 75 % 1020,6 hPa 0,0 l/m 0 min 0 min 176 W/m 6,4 km/h (2 Bft) 100,00 %
29.04.2023 17:06 14,6 C 15,0 C 10,6 C 75 % 1020,6 hPa 0,0 l/m 0 min 0 min 199 W/m 12,9 km/h (3 Bft) 100,00 %
29.04.2023 17:08 14,6 C 15,0 C 10,6 C 74 % 1020,6 hPa 0,0 l/m 0 min 0 min 217 W/m 6,4 km/h (2 Bft) 97,83 %
29.04.2023 17:10 14,7 C 15,0 C 10,6 C 74 % 1020,6 hPa 0,0 l/m 0 min 0 min 213 W/m 3,2 km/h (1 Bft) 97,87 %
29.04.2023 17:12 14,7 C 15,0 C 11,1 C 74 % 1020,6 hPa 0,0 l/m 0 min 0 min 203 W/m 6,4 km/h (2 Bft) 100,00 %
29.04.2023 17:14 14,7 C 15,0 C 11,1 C 74 % 1020,6 hPa 0,0 l/m 0 min 0 min 199 W/m 9,7 km/h (2 Bft) 100,00 %
29.04.2023 17:16 14,7 C 15,0 C 11,1 C 74 % 1020,7 hPa 0,0 l/m 0 min 0 min 188 W/m 9,7 km/h (2 Bft) 97,87 %
29.04.2023 17:18 14,7 C 15,0 C 11,1 C 74 % 1020,7 hPa 0,0 l/m 0 min 0 min 181 W/m 9,7 km/h (2 Bft) 100,00 %
29.04.2023 17:20 14,7 C 15,0 C 10,6 C 73 % 1020,7 hPa 0,0 l/m 0 min 0 min 169 W/m 9,7 km/h (2 Bft) 97,87 %
29.04.2023 17:22 14,7 C 15,0 C 11,1 C 73 % 1020,6 hPa 0,0 l/m 0 min 0 min 151 W/m 3,2 km/h (1 Bft) 100,00 %
29.04.2023 17:24 14,7 C 15,0 C 10,6 C 73 % 1020,6 hPa 0,0 l/m 0 min 0 min 136 W/m 9,7 km/h (2 Bft) 100,00 %
29.04.2023 17:26 14,7 C 15,0 C 10,6 C 73 % 1020,6 hPa 0,0 l/m 0 min 0 min 144 W/m 3,2 km/h (1 Bft) 95,74 %
29.04.2023 17:28 14,7 C 15,0 C 11,1 C 73 % 1020,6 hPa 0,0 l/m 0 min 0 min 152 W/m 0,0 km/h (0 Bft) 97,87 %
29.04.2023 17:30 14,8 C 15,0 C 11,1 C 73 % 1020,6 hPa 0,0 l/m 0 min 0 min 146 W/m 6,4 km/h (2 Bft) 97,87 %
29.04.2023 17:32 14,8 C 15,0 C 11,1 C 73 % 1020,7 hPa 0,0 l/m 0 min 0 min 145 W/m 6,4 km/h (2 Bft) 97,87 %
29.04.2023 17:34 14,8 C 15,0 C 11,1 C 73 % 1020,7 hPa 0,0 l/m 0 min 0 min 151 W/m 3,2 km/h (1 Bft) 97,87 %
29.04.2023 17:36 14,8 C 15,0 C 11,1 C 72 % 1020,6 hPa 0,0 l/m 0 min 0 min 163 W/m 9,7 km/h (2 Bft) 97,83 %
29.04.2023 17:38 14,9 C 15,6 C 11,1 C 72 % 1020,6 hPa 0,0 l/m 0 min 0 min 175 W/m 9,7 km/h (2 Bft) 97,87 %
29.04.2023 17:40 14,9 C 15,0 C 11,1 C 72 % 1020,7 hPa 0,0 l/m 0 min 0 min 185 W/m 9,7 km/h (2 Bft) 97,87 %
29.04.2023 17:42 14,9 C 15,0 C 11,1 C 72 % 1020,7 hPa 0,0 l/m 0 min 0 min 197 W/m 6,4 km/h (2 Bft) 95,74 %
29.04.2023 17:44 14,9 C 15,6 C 11,1 C 72 % 1020,7 hPa 0,0 l/m 0 min 0 min 209 W/m 6,4 km/h (2 Bft) 97,87 %
29.04.2023 17:46 14,9 C 15,6 C 11,1 C 72 % 1020,7 hPa 0,0 l/m 0 min 0 min 201 W/m 3,2 km/h (1 Bft) 93,62 %
29.04.2023 17:48 14,9 C 15,6 C 11,1 C 72 % 1020,7 hPa 0,0 l/m 0 min 0 min 190 W/m 6,4 km/h (2 Bft) 95,74 %
29.04.2023 17:50 15,0 C 15,6 C 11,1 C 72 % 1020,7 hPa 0,0 l/m 0 min 0 min 190 W/m 9,7 km/h (2 Bft) 95,65 %
29.04.2023 17:52 15,0 C 15,6 C 11,1 C 71 % 1020,7 hPa 0,0 l/m 0 min 0 min 189 W/m 6,4 km/h (2 Bft) 93,62 %
29.04.2023 17:54 15,0 C 15,6 C 11,1 C 71 % 1020,8 hPa 0,0 l/m 0 min 0 min 186 W/m 6,4 km/h (2 Bft) 95,74 %
29.04.2023 17:56 15,1 C 15,6 C 11,1 C 70 % 1020,8 hPa 0,0 l/m 0 min 0 min 194 W/m 9,7 km/h (2 Bft) 93,62 %
29.04.2023 17:58 15,1 C 15,6 C 11,1 C 70 % 1020,8 hPa 0,0 l/m 0 min 0 min 194 W/m 6,4 km/h (2 Bft) 95,74 %
29.04.2023 18:00 15,1 C 16,1 C 11,1 C 71 % 1020,7 hPa 0,0 l/m 0 min 0 min 180 W/m 6,4 km/h (2 Bft) 91,43 %
29.04.2023 18:02 15,1 C 16,1 C 11,1 C 71 % 1020,8 hPa 0,0 l/m 0 min 0 min 170 W/m 3,2 km/h (1 Bft) 97,87 %
29.04.2023 18:04 15,2 C 15,6 C 11,1 C 71 % 1020,8 hPa 0,0 l/m 0 min 0 min 160 W/m 12,9 km/h (3 Bft) 97,87 %
29.04.2023 18:07 15,2 C 15,6 C 11,1 C 70 % 1020,8 hPa 0,0 l/m 0 min 0 min 155 W/m 6,4 km/h (2 Bft) 97,59 %
29.04.2023 18:08 15,2 C 15,0 C 11,1 C 70 % 1020,8 hPa 0,0 l/m 0 min 0 min 153 W/m 3,2 km/h (1 Bft) 100,00 %
29.04.2023 18:12 15,1 C 15,0 C 11,1 C 71 % 1020,8 hPa 0,0 l/m 0 min 0 min 145 W/m 3,2 km/h (1 Bft) 100,00 %
29.04.2023 18:14 15,1 C 15,0 C 11,1 C 71 % 1020,7 hPa 0,0 l/m 0 min 0 min 145 W/m 9,7 km/h (2 Bft) 97,87 %
29.04.2023 18:16 15,1 C 15,0 C 11,1 C 71 % 1020,8 hPa 0,0 l/m 0 min 0 min 150 W/m 6,4 km/h (2 Bft) 95,74 %
29.04.2023 18:18 15,2 C 15,0 C 11,1 C 71 % 1020,8 hPa 0,0 l/m 0 min 0 min 155 W/m 6,4 km/h (2 Bft) 97,87 %
29.04.2023 18:20 15,2 C 15,0 C 11,1 C 71 % 1020,8 hPa 0,0 l/m 0 min 0 min 161 W/m 6,4 km/h (2 Bft) 97,83 %
29.04.2023 18:22 15,2 C 15,0 C 11,1 C 71 % 1020,8 hPa 0,0 l/m 0 min 0 min 176 W/m 6,4 km/h (2 Bft) 97,87 %
29.04.2023 18:24 15,2 C 15,6 C 11,1 C 72 % 1020,8 hPa 0,0 l/m 2 min 0 min 181 W/m 12,9 km/h (3 Bft) 95,74 %
29.04.2023 18:26 15,2 C 15,6 C 11,1 C 71 % 1020,8 hPa 0,0 l/m 2 min 0 min 182 W/m 6,4 km/h (2 Bft) 100,00 %
29.04.2023 18:28 15,2 C 15,6 C 11,1 C 72 % 1020,8 hPa 0,0 l/m 2 min 0 min 179 W/m 9,7 km/h (2 Bft) 97,87 %
29.04.2023 18:30 15,2 C 16,1 C 11,1 C 72 % 1020,8 hPa 0,0 l/m 2 min 0 min 184 W/m 12,9 km/h (3 Bft) 100,00 %
29.04.2023 18:32 15,2 C 16,7 C 11,1 C 72 % 1020,8 hPa 0,0 l/m 2 min 0 min 274 W/m 6,4 km/h (2 Bft) 97,87 %
29.04.2023 18:34 15,3 C 18,3 C 11,1 C 72 % 1020,8 hPa 0,0 l/m 2 min 0 min 382 W/m 6,4 km/h (2 Bft) 97,83 %
29.04.2023 18:36 15,4 C 18,9 C 11,7 C 72 % 1020,8 hPa 0,0 l/m 2 min 0 min 348 W/m 9,7 km/h (2 Bft) 97,87 %
29.04.2023 18:38 15,6 C 19,4 C 11,7 C 72 % 1020,8 hPa 0,0 l/m 2 min 0 min 318 W/m 9,7 km/h (2 Bft) 97,87 %
29.04.2023 18:40 15,7 C 20,0 C 11,7 C 71 % 1020,8 hPa 0,0 l/m 2 min 0 min 334 W/m 6,4 km/h (2 Bft) 100,00 %
29.04.2023 18:42 15,8 C 18,9 C 11,7 C 70 % 1020,8 hPa 0,0 l/m 2 min 0 min 253 W/m 9,7 km/h (2 Bft) 97,87 %
29.04.2023 18:44 15,9 C 18,3 C 11,7 C 70 % 1020,8 hPa 0,0 l/m 0 min 0 min 135 W/m 9,7 km/h (2 Bft) 100,00 %
29.04.2023 18:46 15,9 C 17,2 C 11,7 C 69 % 1020,8 hPa 0,0 l/m 0 min 0 min 124 W/m 9,7 km/h (2 Bft) 100,00 %
29.04.2023 18:48 15,9 C 16,7 C 11,1 C 69 % 1020,8 hPa 0,0 l/m 2 min 0 min 158 W/m 6,4 km/h (2 Bft) 100,00 %
29.04.2023 18:50 15,9 C 16,1 C 11,1 C 69 % 1020,8 hPa 0,0 l/m 0 min 0 min 113 W/m 9,7 km/h (2 Bft) 100,00 %
29.04.2023 18:52 15,9 C 16,1 C 11,1 C 69 % 1020,9 hPa 0,0 l/m 0 min 0 min 98 W/m 16,1 km/h (3 Bft) 100,00 %
29.04.2023 18:54 15,9 C 15,6 C 11,1 C 69 % 1020,8 hPa 0,0 l/m 0 min 0 min 134 W/m 12,9 km/h (3 Bft) 97,87 %
29.04.2023 18:56 15,9 C 15,6 C 11,1 C 69 % 1020,9 hPa 0,0 l/m 0 min 0 min 80 W/m 6,4 km/h (2 Bft) 97,87 %
29.04.2023 18:58 15,9 C 15,6 C 11,1 C 69 % 1020,8 hPa 0,0 l/m 0 min 0 min 75 W/m 6,4 km/h (2 Bft) 100,00 %
29.04.2023 19:00 15,9 C 15,0 C 11,1 C 69 % 1020,8 hPa 0,0 l/m 0 min 0 min 73 W/m 6,4 km/h (2 Bft) 100,00 %
29.04.2023 19:02 15,9 C 15,0 C 11,1 C 70 % 1020,8 hPa 0,0 l/m 0 min 0 min 71 W/m 6,4 km/h (2 Bft) 100,00 %
29.04.2023 19:04 15,8 C 15,0 C 10,6 C 69 % 1020,8 hPa 0,0 l/m 0 min 0 min 70 W/m 6,4 km/h (2 Bft) 97,87 %
29.04.2023 19:06 15,8 C 15,0 C 10,6 C 69 % 1020,9 hPa 0,0 l/m 0 min 0 min 69 W/m 9,7 km/h (2 Bft) 97,87 %
29.04.2023 19:08 15,7 C 15,0 C 10,6 C 69 % 1020,8 hPa 0,0 l/m 0 min 0 min 67 W/m 3,2 km/h (1 Bft) 97,87 %
29.04.2023 19:10 15,7 C 15,0 C 10,6 C 69 % 1020,9 hPa 0,0 l/m 0 min 0 min 63 W/m 3,2 km/h (1 Bft) 97,87 %
29.04.2023 19:12 15,7 C 15,0 C 10,6 C 69 % 1020,9 hPa 0,0 l/m 0 min 0 min 57 W/m 6,4 km/h (2 Bft) 95,74 %
29.04.2023 19:14 15,7 C 15,0 C 10,6 C 69 % 1020,9 hPa 0,0 l/m 0 min 0 min 53 W/m 6,4 km/h (2 Bft) 97,87 %
29.04.2023 19:16 15,6 C 14,4 C 10,6 C 70 % 1021,0 hPa 0,0 l/m 0 min 0 min 51 W/m 9,7 km/h (2 Bft) 97,83 %
29.04.2023 19:18 15,6 C 14,4 C 10,6 C 70 % 1020,9 hPa 0,0 l/m 0 min 0 min 51 W/m 3,2 km/h (1 Bft) 97,87 %
29.04.2023 19:20 15,6 C 14,4 C 10,6 C 70 % 1021,0 hPa 0,0 l/m 0 min 0 min 52 W/m 3,2 km/h (1 Bft) 97,87 %
29.04.2023 19:22 15,5 C 14,4 C 10,6 C 70 % 1021,0 hPa 0,0 l/m 0 min 0 min 53 W/m 6,4 km/h (2 Bft) 97,87 %
29.04.2023 19:24 15,4 C 14,4 C 10,6 C 70 % 1021,0 hPa 0,0 l/m 0 min 0 min 54 W/m 6,4 km/h (2 Bft) 97,87 %
29.04.2023 19:26 15,4 C 14,4 C 10,6 C 70 % 1021,0 hPa 0,0 l/m 0 min 0 min 53 W/m 6,4 km/h (2 Bft) 95,74 %
29.04.2023 19:28 15,4 C 14,4 C 10,6 C 70 % 1021,0 hPa 0,0 l/m 0 min 0 min 51 W/m 6,4 km/h (2 Bft) 95,74 %
29.04.2023 19:30 15,4 C 14,4 C 10,6 C 70 % 1021,0 hPa 0,0 l/m 0 min 0 min 47 W/m 3,2 km/h (1 Bft) 95,65 %
29.04.2023 19:32 15,4 C 14,4 C 10,6 C 71 % 1021,0 hPa 0,0 l/m 0 min 0 min 44 W/m 3,2 km/h (1 Bft) 97,87 %
29.04.2023 19:34 15,3 C 14,4 C 10,6 C 70 % 1020,9 hPa 0,0 l/m 0 min 0 min 42 W/m 6,4 km/h (2 Bft) 93,62 %
29.04.2023 19:36 15,3 C 14,4 C 10,6 C 70 % 1020,9 hPa 0,0 l/m 0 min 0 min 42 W/m 12,9 km/h (3 Bft) 95,74 %
29.04.2023 19:38 15,3 C 14,4 C 10,0 C 70 % 1021,0 hPa 0,0 l/m 0 min 0 min 42 W/m 6,4 km/h (2 Bft) 95,74 %
29.04.2023 19:40 15,2 C 14,4 C 10,0 C 70 % 1020,9 hPa 0,0 l/m 0 min 0 min 41 W/m 3,2 km/h (1 Bft) 93,62 %
29.04.2023 19:42 15,2 C 14,4 C 10,0 C 70 % 1020,9 hPa 0,0 l/m 0 min 0 min 38 W/m 3,2 km/h (1 Bft) 95,74 %
29.04.2023 19:44 15,2 C 14,4 C 10,0 C 71 % 1021,0 hPa 0,0 l/m 0 min 0 min 34 W/m 3,2 km/h (1 Bft) 95,65 %
29.04.2023 19:46 15,2 C 14,4 C 10,0 C 71 % 1020,9 hPa 0,0 l/m 0 min 0 min 31 W/m 3,2 km/h (1 Bft) 91,49 %
29.04.2023 19:48 15,2 C 14,4 C 10,0 C 71 % 1021,0 hPa 0,0 l/m 0 min 0 min 29 W/m 6,4 km/h (2 Bft) 93,62 %
29.04.2023 19:50 15,1 C 13,9 C 10,0 C 71 % 1020,9 hPa 0,0 l/m 0 min 0 min 28 W/m 6,4 km/h (2 Bft) 95,74 %
29.04.2023 19:52 15,1 C 13,9 C 10,0 C 71 % 1020,9 hPa 0,0 l/m 0 min 0 min 28 W/m 3,2 km/h (1 Bft) 93,62 %
29.04.2023 19:54 15,1 C 13,9 C 10,0 C 71 % 1021,0 hPa 0,0 l/m 0 min 0 min 28 W/m 3,2 km/h (1 Bft) 95,74 %
29.04.2023 19:56 15,1 C 13,9 C 10,0 C 71 % 1021,0 hPa 0,0 l/m 0 min 0 min 28 W/m 3,2 km/h (1 Bft) 95,65 %
29.04.2023 19:58 15,1 C 13,9 C 10,0 C 72 % 1021,0 hPa 0,0 l/m 0 min 0 min 29 W/m 0,0 km/h (0 Bft) 95,74 %
29.04.2023 20:00 15,1 C 13,9 C 10,0 C 72 % 1021,0 hPa 0,0 l/m 0 min 0 min 31 W/m 0,0 km/h (0 Bft) 95,74 %
29.04.2023 20:02 15,0 C 13,9 C 10,0 C 72 % 1021,1 hPa 0,0 l/m 0 min 0 min 28 W/m 6,4 km/h (2 Bft) 97,87 %
29.04.2023 20:04 15,0 C 13,9 C 10,0 C 72 % 1021,0 hPa 0,0 l/m 0 min 0 min 24 W/m 3,2 km/h (1 Bft) 97,92 %
29.04.2023 20:06 14,9 C 13,9 C 10,0 C 72 % 1021,1 hPa 0,0 l/m 0 min 0 min 22 W/m 6,4 km/h (2 Bft) 100,00 %
29.04.2023 20:08 14,9 C 13,9 C 10,0 C 72 % 1021,0 hPa 0,0 l/m 0 min 0 min 21 W/m 3,2 km/h (1 Bft) 97,87 %
29.04.2023 20:10 14,9 C 13,9 C 10,0 C 72 % 1021,1 hPa 0,0 l/m 0 min 0 min 20 W/m 3,2 km/h (1 Bft) 100,00 %
29.04.2023 20:12 14,9 C 13,9 C 10,0 C 72 % 1021,0 hPa 0,0 l/m 0 min 0 min 19 W/m 6,4 km/h (2 Bft) 100,00 %
29.04.2023 20:14 14,8 C 13,9 C 10,0 C 72 % 1021,0 hPa 0,0 l/m 0 min 0 min 21 W/m 3,2 km/h (1 Bft) 100,00 %
29.04.2023 20:16 14,8 C 13,9 C 9,4 C 72 % 1021,1 hPa 0,0 l/m 0 min 0 min 20 W/m 6,4 km/h (2 Bft) 100,00 %
29.04.2023 20:18 14,8 C 13,3 C 9,4 C 72 % 1021,0 hPa 0,0 l/m 0 min 0 min 17 W/m 3,2 km/h (1 Bft) 97,87 %
29.04.2023 20:20 14,8 C 13,3 C 9,4 C 73 % 1021,0 hPa 0,0 l/m 0 min 0 min 16 W/m 0,0 km/h (0 Bft) 100,00 %
29.04.2023 20:22 14,8 C 13,3 C 9,4 C 73 % 1021,0 hPa 0,0 l/m 0 min 0 min 16 W/m 3,2 km/h (1 Bft) 97,87 %
29.04.2023 20:24 14,8 C 13,3 C 9,4 C 73 % 1021,0 hPa 0,0 l/m 0 min 0 min 16 W/m 0,0 km/h (0 Bft) 100,00 %
29.04.2023 20:26 14,8 C 13,3 C 9,4 C 74 % 1021,0 hPa 0,0 l/m 0 min 0 min 14 W/m 0,0 km/h (0 Bft) 97,83 %
29.04.2023 20:28 14,7 C 13,3 C 9,4 C 74 % 1021,0 hPa 0,0 l/m 0 min 0 min 12 W/m 0,0 km/h (0 Bft) 97,87 %
29.04.2023 20:30 14,7 C 13,3 C 9,4 C 74 % 1021,1 hPa 0,0 l/m 0 min 0 min 11 W/m 0,0 km/h (0 Bft) 97,87 %
29.04.2023 20:32 14,7 C 13,3 C 9,4 C 74 % 1021,1 hPa 0,0 l/m 0 min 0 min 11 W/m 0,0 km/h (0 Bft) 95,74 %
29.04.2023 20:34 14,7 C 13,3 C 9,4 C 74 % 1021,1 hPa 0,0 l/m 0 min 0 min 9 W/m 0,0 km/h (0 Bft) 93,62 %
29.04.2023 20:36 14,6 C 13,3 C 9,4 C 74 % 1021,1 hPa 0,0 l/m 0 min 0 min 9 W/m 0,0 km/h (0 Bft) 97,87 %
29.04.2023 20:38 14,6 C 13,3 C 9,4 C 75 % 1021,1 hPa 0,0 l/m 0 min 0 min 7 W/m 0,0 km/h (0 Bft) 97,14 %
29.04.2023 20:40 14,6 C 13,3 C 9,4 C 75 % 1021,1 hPa 0,0 l/m 0 min 0 min 7 W/m 0,0 km/h (0 Bft) 98,25 %
29.04.2023 20:42 14,6 C 12,8 C 9,4 C 75 % 1021,1 hPa 0,0 l/m 0 min 0 min 5 W/m 0,0 km/h (0 Bft) 97,87 %
29.04.2023 20:44 14,6 C 12,8 C 8,9 C 76 % 1021,1 hPa 0,0 l/m 0 min 0 min 5 W/m 0,0 km/h (0 Bft) 97,87 %
29.04.2023 20:46 14,5 C 12,8 C 8,9 C 76 % 1021,1 hPa 0,0 l/m 0 min 0 min 5 W/m 3,2 km/h (1 Bft) 97,92 %
29.04.2023 20:48 14,5 C 12,8 C 8,9 C 76 % 1021,1 hPa 0,0 l/m 0 min 0 min 0 W/m 0,0 km/h (0 Bft) 94,29 %
29.04.2023 20:50 14,4 C 12,8 C 8,9 C 76 % 1021,1 hPa 0,0 l/m 0 min 0 min 0 W/m 0,0 km/h (0 Bft) 98,25 %
29.04.2023 20:52 14,4 C 12,8 C 8,9 C 76 % 1021,1 hPa 0,0 l/m 0 min 0 min 0 W/m 3,2 km/h (1 Bft) 95,74 %
29.04.2023 20:54 14,3 C 12,8 C 8,9 C 76 % 1021,1 hPa 0,0 l/m 0 min 0 min 0 W/m 3,2 km/h (1 Bft) 95,83 %
29.04.2023 20:56 14,3 C 12,8 C 8,9 C 76 % 1021,1 hPa 0,0 l/m 0 min 0 min 0 W/m 3,2 km/h (1 Bft) 97,87 %
29.04.2023 20:58 14,3 C 12,8 C 8,9 C 76 % 1021,1 hPa 0,0 l/m 0 min 0 min 0 W/m 0,0 km/h (0 Bft) 97,87 %
29.04.2023 21:00 14,3 C 12,8 C 8,9 C 76 % 1021,1 hPa 0,0 l/m 0 min 0 min 0 W/m 3,2 km/h (1 Bft) 97,87 %
29.04.2023 21:02 14,3 C 12,8 C 8,9 C 76 % 1021,2 hPa 0,0 l/m 0 min 0 min 0 W/m 0,0 km/h (0 Bft) 95,74 %
29.04.2023 21:04 14,3 C 12,8 C 8,9 C 76 % 1021,2 hPa 0,0 l/m 0 min 0 min 0 W/m 0,0 km/h (0 Bft) 100,00 %
29.04.2023 21:06 14,3 C 12,8 C 8,9 C 76 % 1021,2 hPa 0,0 l/m 0 min 0 min 0 W/m 3,2 km/h (1 Bft) 97,87 %
29.04.2023 21:08 14,3 C 12,8 C 8,9 C 76 % 1021,2 hPa 0,0 l/m 0 min 0 min 0 W/m 3,2 km/h (1 Bft) 95,65 %
29.04.2023 21:10 14,3 C 12,8 C 8,9 C 76 % 1021,2 hPa 0,0 l/m 0 min 0 min 0 W/m 3,2 km/h (1 Bft) 97,87 %
29.04.2023 21:12 14,2 C 12,8 C 8,9 C 76 % 1021,3 hPa 0,0 l/m 0 min 0 min 0 W/m 0,0 km/h (0 Bft) 100,00 %
29.04.2023 21:14 14,2 C 12,8 C 8,9 C 77 % 1021,3 hPa 0,0 l/m 0 min 0 min 0 W/m 3,2 km/h (1 Bft) 100,00 %
29.04.2023 21:16 14,1 C 12,8 C 8,9 C 76 % 1021,3 hPa 0,0 l/m 0 min 0 min 0 W/m 0,0 km/h (0 Bft) 100,00 %
29.04.2023 21:18 14,1 C 12,8 C 8,9 C 77 % 1021,3 hPa 0,0 l/m 0 min 0 min 0 W/m 0,0 km/h (0 Bft) 100,00 %
29.04.2023 21:20 14,1 C 12,8 C 8,9 C 77 % 1021,3 hPa 0,0 l/m 0 min 0 min 0 W/m 0,0 km/h (0 Bft) 97,87 %
29.04.2023 21:22 14,1 C 12,8 C 8,9 C 76 % 1021,3 hPa 0,0 l/m 0 min 0 min 0 W/m 0,0 km/h (0 Bft) 100,00 %
29.04.2023 21:24 14,1 C 12,8 C 8,3 C 77 % 1021,3 hPa 0,0 l/m 0 min 0 min 0 W/m 0,0 km/h (0 Bft) 100,00 %
29.04.2023 21:26 14,0 C 12,8 C 8,3 C 77 % 1021,3 hPa 0,0 l/m 0 min 0 min 0 W/m 0,0 km/h (0 Bft) 100,00 %
29.04.2023 21:28 14,0 C 12,8 C 8,9 C 77 % 1021,3 hPa 0,0 l/m 0 min 0 min 0 W/m 0,0 km/h (0 Bft) 95,74 %
29.04.2023 21:30 13,9 C 12,8 C 8,9 C 77 % 1021,3 hPa 0,0 l/m 0 min 0 min 0 W/m 0,0 km/h (0 Bft) 97,87 %
29.04.2023 21:32 13,9 C 12,8 C 8,9 C 77 % 1021,3 hPa 0,0 l/m 0 min 0 min 0 W/m 0,0 km/h (0 Bft) 93,62 %
29.04.2023 21:34 13,9 C 12,2 C 8,9 C 77 % 1021,4 hPa 0,0 l/m 0 min 0 min 0 W/m 3,2 km/h (1 Bft) 97,87 %
29.04.2023 21:36 13,8 C 12,2 C 8,3 C 78 % 1021,4 hPa 0,0 l/m 0 min 0 min 0 W/m 0,0 km/h (0 Bft) 95,65 %
29.04.2023 21:38 13,8 C 12,2 C 8,3 C 78 % 1021,4 hPa 0,0 l/m 0 min 0 min 0 W/m 0,0 km/h (0 Bft) 97,22 %
29.04.2023 21:40 13,8 C 12,2 C 8,3 C 78 % 1021,4 hPa 0,0 l/m 0 min 0 min 0 W/m 0,0 km/h (0 Bft) 98,28 %
29.04.2023 21:42 13,8 C 12,2 C 8,3 C 78 % 1021,4 hPa 0,0 l/m 0 min 0 min 0 W/m 0,0 km/h (0 Bft) 95,74 %
29.04.2023 21:44 13,7 C 12,2 C 8,3 C 78 % 1021,4 hPa 0,0 l/m 0 min 0 min 0 W/m 0,0 km/h (0 Bft) 97,14 %
29.04.2023 21:46 13,7 C 12,2 C 8,3 C 78 % 1021,5 hPa 0,0 l/m 0 min 0 min 0 W/m 0,0 km/h (0 Bft) 97,87 %
29.04.2023 21:48 13,7 C 12,2 C 7,8 C 78 % 1021,4 hPa 0,0 l/m 0 min 0 min 0 W/m 0,0 km/h (0 Bft) 98,00 %
29.04.2023 21:50 13,7 C 11,7 C 7,8 C 78 % 1021,4 hPa 0,0 l/m 0 min 0 min 0 W/m 0,0 km/h (0 Bft) 97,87 %
29.04.2023 21:52 13,6 C 11,7 C 7,8 C 78 % 1021,4 hPa 0,0 l/m 0 min 0 min 0 W/m 0,0 km/h (0 Bft) 95,74 %
29.04.2023 21:54 13,6 C 11,7 C 7,8 C 79 % 1021,4 hPa 0,0 l/m 0 min 0 min 0 W/m 0,0 km/h (0 Bft) 97,83 %
29.04.2023 21:56 13,6 C 11,7 C 7,8 C 79 % 1021,5 hPa 0,0 l/m 0 min 0 min 0 W/m 0,0 km/h (0 Bft) 93,62 %
29.04.2023 21:58 13,5 C 11,1 C 7,2 C 79 % 1021,5 hPa 0,0 l/m 0 min 0 min 0 W/m 0,0 km/h (0 Bft) 96,00 %
29.04.2023 22:00 13,4 C 11,1 C 7,2 C 79 % 1021,5 hPa 0,0 l/m 0 min 0 min 0 W/m 0,0 km/h (0 Bft) 97,87 %
29.04.2023 22:02 13,4 C 11,1 C 7,2 C 79 % 1021,6 hPa 0,0 l/m 0 min 0 min 0 W/m 0,0 km/h (0 Bft) 93,62 %
29.04.2023 22:04 13,3 C 11,1 C 7,2 C 79 % 1021,6 hPa 0,0 l/m 0 min 0 min 0 W/m 0,0 km/h (0 Bft) 97,92 %
29.04.2023 22:06 13,3 C 10,6 C 7,2 C 79 % 1021,6 hPa 0,0 l/m 0 min 0 min 0 W/m 3,2 km/h (1 Bft) 95,74 %
29.04.2023 22:08 13,2 C 10,6 C 6,7 C 79 % 1021,6 hPa 0,0 l/m 0 min 0 min 0 W/m 0,0 km/h (0 Bft) 97,83 %
29.04.2023 22:10 13,2 C 10,6 C 6,7 C 80 % 1021,6 hPa 0,0 l/m 0 min 0 min 0 W/m 0,0 km/h (0 Bft) 95,74 %
29.04.2023 22:12 13,1 C 10,6 C 6,7 C 80 % 1021,7 hPa 0,0 l/m 0 min 0 min 0 W/m 0,0 km/h (0 Bft) 97,87 %
29.04.2023 22:14 13,1 C 10,6 C 6,7 C 80 % 1021,7 hPa 0,0 l/m 0 min 0 min 0 W/m 0,0 km/h (0 Bft) 97,87 %
29.04.2023 22:16 13,0 C 10,6 C 6,7 C 80 % 1021,7 hPa 0,0 l/m 0 min 0 min 0 W/m 3,2 km/h (1 Bft) 95,74 %
29.04.2023 22:18 12,9 C 10,6 C 6,7 C 80 % 1021,7 hPa 0,0 l/m 0 min 0 min 0 W/m 0,0 km/h (0 Bft) 97,87 %
29.04.2023 22:20 12,9 C 10,6 C 6,7 C 80 % 1021,7 hPa 0,0 l/m 0 min 0 min 0 W/m 0,0 km/h (0 Bft) 97,87 %
29.04.2023 22:22 12,8 C 10,6 C 6,7 C 80 % 1021,7 hPa 0,0 l/m 0 min 0 min 0 W/m 0,0 km/h (0 Bft) 97,83 %
29.04.2023 22:24 12,7 C 10,6 C 6,7 C 81 % 1021,8 hPa 0,0 l/m 0 min 0 min 0 W/m 0,0 km/h (0 Bft) 97,87 %
29.04.2023 22:26 12,7 C 10,6 C 6,7 C 81 % 1021,7 hPa 0,0 l/m 0 min 0 min 0 W/m 0,0 km/h (0 Bft) 93,62 %
29.04.2023 22:28 12,6 C 10,6 C 6,7 C 81 % 1021,7 hPa 0,0 l/m 0 min 0 min 0 W/m 0,0 km/h (0 Bft) 97,87 %
29.04.2023 22:30 12,6 C 10,6 C 6,7 C 81 % 1021,7 hPa 0,0 l/m 0 min 0 min 0 W/m 0,0 km/h (0 Bft) 95,74 %
29.04.2023 22:32 12,5 C 10,6 C 6,7 C 81 % 1021,8 hPa 0,0 l/m 0 min 0 min 0 W/m 0,0 km/h (0 Bft) 97,87 %
29.04.2023 22:34 12,4 C 10,6 C 6,7 C 82 % 1021,7 hPa 0,0 l/m 0 min 0 min 0 W/m 0,0 km/h (0 Bft) 95,74 %
29.04.2023 22:36 12,4 C 10,6 C 6,7 C 82 % 1021,8 hPa 0,0 l/m 0 min 0 min 0 W/m 0,0 km/h (0 Bft) 95,65 %
29.04.2023 22:38 12,3 C 10,6 C 6,7 C 82 % 1021,8 hPa 0,0 l/m 0 min 0 min 0 W/m 0,0 km/h (0 Bft) 100,00 %
29.04.2023 22:40 12,3 C 10,6 C 6,7 C 82 % 1021,8 hPa 0,0 l/m 0 min 0 min 0 W/m 0,0 km/h (0 Bft) 97,87 %
29.04.2023 22:42 12,3 C 10,6 C 6,7 C 82 % 1021,8 hPa 0,0 l/m 0 min 0 min 0 W/m 0,0 km/h (0 Bft) 100,00 %
29.04.2023 22:44 12,2 C 10,6 C 6,7 C 82 % 1021,8 hPa 0,0 l/m 0 min 0 min 0 W/m 0,0 km/h (0 Bft) 100,00 %
29.04.2023 22:46 12,2 C 10,6 C 6,7 C 83 % 1021,8 hPa 0,0 l/m 0 min 0 min 0 W/m 0,0 km/h (0 Bft) 100,00 %
29.04.2023 22:48 12,1 C 10,6 C 6,7 C 83 % 1021,8 hPa 0,0 l/m 0 min 0 min 0 W/m 0,0 km/h (0 Bft) 100,00 %
29.04.2023 22:50 12,1 C 10,6 C 6,7 C 83 % 1021,9 hPa 0,0 l/m 0 min 0 min 0 W/m 0,0 km/h (0 Bft) 100,00 %
29.04.2023 22:52 12,1 C 10,6 C 6,7 C 83 % 1021,9 hPa 0,0 l/m 0 min 0 min 0 W/m 0,0 km/h (0 Bft) 95,65 %
29.04.2023 22:54 12,1 C 10,6 C 6,7 C 83 % 1021,9 hPa 0,0 l/m 0 min 0 min 0 W/m 0,0 km/h (0 Bft) 100,00 %
29.04.2023 22:56 12,0 C 10,6 C 6,7 C 83 % 1021,9 hPa 0,0 l/m 0 min 0 min 0 W/m 0,0 km/h (0 Bft) 100,00 %
29.04.2023 22:58 11,9 C 10,6 C 6,7 C 83 % 1021,9 hPa 0,0 l/m 0 min 0 min 0 W/m 0,0 km/h (0 Bft) 100,00 %
29.04.2023 23:00 11,9 C 10,6 C 6,7 C 83 % 1021,9 hPa 0,0 l/m 0 min 0 min 0 W/m 0,0 km/h (0 Bft) 100,00 %
29.04.2023 23:02 11,9 C 10,6 C 6,7 C 83 % 1021,9 hPa 0,0 l/m 0 min 0 min 0 W/m 0,0 km/h (0 Bft) 100,00 %
29.04.2023 23:04 11,9 C 10,6 C 6,7 C 83 % 1021,9 hPa 0,0 l/m 0 min 0 min 0 W/m 0,0 km/h (0 Bft) 97,87 %
29.04.2023 23:06 11,8 C 10,6 C 6,7 C 84 % 1022,0 hPa 0,0 l/m 0 min 0 min 0 W/m 3,2 km/h (1 Bft) 100,00 %
29.04.2023 23:08 11,8 C 10,6 C 6,7 C 84 % 1022,0 hPa 0,0 l/m 0 min 0 min 0 W/m 0,0 km/h (0 Bft) 97,14 %
29.04.2023 23:10 11,8 C 10,6 C 6,7 C 84 % 1022,0 hPa 0,0 l/m 0 min 0 min 0 W/m 0,0 km/h (0 Bft) 97,87 %
29.04.2023 23:12 11,7 C 10,0 C 6,7 C 84 % 1022,0 hPa 0,0 l/m 0 min 0 min 0 W/m 0,0 km/h (0 Bft) 97,87 %
29.04.2023 23:14 11,7 C 10,0 C 6,7 C 84 % 1022,0 hPa 0,0 l/m 0 min 0 min 0 W/m 0,0 km/h (0 Bft) 97,87 %
29.04.2023 23:16 11,7 C 10,0 C 6,7 C 84 % 1022,1 hPa 0,0 l/m 0 min 0 min 0 W/m 0,0 km/h (0 Bft) 100,00 %
29.04.2023 23:18 11,6 C 10,0 C 6,1 C 84 % 1022,1 hPa 0,0 l/m 0 min 0 min 0 W/m 0,0 km/h (0 Bft) 97,87 %
29.04.2023 23:20 11,6 C 10,0 C 6,7 C 84 % 1022,1 hPa 0,0 l/m 0 min 0 min 0 W/m 6,4 km/h (2 Bft) 97,87 %
29.04.2023 23:22 11,5 C 10,0 C 6,7 C 84 % 1022,1 hPa 0,0 l/m 0 min 0 min 0 W/m 0,0 km/h (0 Bft) 97,83 %
29.04.2023 23:24 11,5 C 10,0 C 6,1 C 84 % 1022,1 hPa 0,0 l/m 0 min 0 min 0 W/m 0,0 km/h (0 Bft) 97,87 %
29.04.2023 23:26 11,4 C 10,0 C 6,1 C 84 % 1022,1 hPa 0,0 l/m 0 min 0 min 0 W/m 3,2 km/h (1 Bft) 97,87 %
29.04.2023 23:28 11,4 C 10,0 C 6,7 C 84 % 1022,1 hPa 0,0 l/m 0 min 0 min 0 W/m 6,4 km/h (2 Bft) 97,87 %
29.04.2023 23:30 11,3 C 10,0 C 6,7 C 84 % 1022,2 hPa 0,0 l/m 0 min 0 min 0 W/m 3,2 km/h (1 Bft) 97,87 %
29.04.2023 23:32 11,3 C 10,0 C 6,7 C 84 % 1022,2 hPa 0,0 l/m 0 min 0 min 0 W/m 6,4 km/h (2 Bft) 97,87 %
29.04.2023 23:34 11,2 C 10,0 C 6,7 C 84 % 1022,2 hPa 0,0 l/m 0 min 0 min 0 W/m 6,4 km/h (2 Bft) 95,65 %
29.04.2023 23:36 11,2 C 10,0 C 6,7 C 84 % 1022,2 hPa 0,0 l/m 0 min 0 min 0 W/m 6,4 km/h (2 Bft) 95,74 %
29.04.2023 23:38 11,2 C 10,0 C 6,7 C 84 % 1022,2 hPa 0,0 l/m 0 min 0 min 0 W/m 6,4 km/h (2 Bft) 97,87 %
29.04.2023 23:40 11,2 C 10,0 C 6,7 C 84 % 1022,2 hPa 0,0 l/m 0 min 0 min 0 W/m 9,7 km/h (2 Bft) 97,87 %
29.04.2023 23:42 11,1 C 10,6 C 6,7 C 84 % 1022,2 hPa 0,0 l/m 0 min 0 min 0 W/m 6,4 km/h (2 Bft) 95,92 %
29.04.2023 23:44 11,1 C 10,6 C 6,7 C 84 % 1022,3 hPa 0,0 l/m 0 min 0 min 0 W/m 12,9 km/h (3 Bft) 97,87 %
29.04.2023 23:46 11,1 C 10,6 C 6,7 C 84 % 1022,3 hPa 0,0 l/m 0 min 0 min 0 W/m 9,7 km/h (2 Bft) 97,87 %
29.04.2023 23:48 11,1 C 10,6 C 6,7 C 84 % 1022,3 hPa 0,0 l/m 0 min 0 min 0 W/m 3,2 km/h (1 Bft) 95,74 %
29.04.2023 23:50 11,1 C 10,6 C 6,7 C 84 % 1022,4 hPa 0,0 l/m 0 min 0 min 0 W/m 3,2 km/h (1 Bft) 97,83 %
29.04.2023 23:52 11,1 C 10,0 C 6,7 C 83 % 1022,4 hPa 0,0 l/m 0 min 0 min 0 W/m 3,2 km/h (1 Bft) 95,74 %
29.04.2023 23:54 11,1 C 10,0 C 6,7 C 83 % 1022,4 hPa 0,0 l/m 0 min 0 min 0 W/m 3,2 km/h (1 Bft) 95,74 %
29.04.2023 23:56 11,1 C 10,0 C 6,7 C 83 % 1022,4 hPa 0,0 l/m 0 min 0 min 0 W/m 9,7 km/h (2 Bft) 97,87 %
29.04.2023 23:58 11,0 C 10,0 C 6,7 C 83 % 1022,4 hPa 0,0 l/m 0 min 0 min 0 W/m 3,2 km/h (1 Bft) 97,87 %
_ Min-Zeit 07:06 05:42 06:32 18:46 00:02 - - - - 15:08 00:02
Minimum _ 9,2 C 8,3 C 5,0 C 69 % 1013,1 hPa - - - - 0,0 km/h (0 Bft) 13,33 %
_ Max-Zeit 18:44 14:34 14:32 06:56 23:50 00:00 13:42 02:06 14:34 03:50 00:14
Maximum _ 15,9 C 21,7 C 11,7 C 97 % 1022,4 hPa 0,0 l/m 2 min 2 min 1020 W/m 35,4 km/h
N (5 Bft)
100,00 %
Durchschnitt _ 12,1 C 11,7 C 8,1 C 86 % 1018,4 hPa #0,0 l/m #1:08 h #8 min. 137 W/m 9,5 km/h (2 Bft) 97,16 %
© 2023 W. Hausmann